Wetterdaten: Samstag, 05.04.2014
Datum Zeit Temp. Aussen +5cm Feuchte Auss Luftdruck Regen Sonnenschein Regendauer UV Solar Windben
05.04.2014 00:00 12,2 C 11,1 C 89 % 1011,1 hPa 0,0 l/m 0 min 0 min 0,0 UV-I 0 W/m 2,6 km/h (1 Bft)
05.04.2014 00:02 12,2 C 11,1 C 89 % 1011,1 hPa 0,0 l/m 0 min 0 min 0,0 UV-I 0 W/m 2,6 km/h (1 Bft)
05.04.2014 00:06 12,2 C 11,1 C 89 % 1011,2 hPa 0,0 l/m 0 min 0 min 0,0 UV-I 0 W/m 5,1 km/h (1 Bft)
05.04.2014 00:08 12,1 C 10,6 C 89 % 1011,2 hPa 0,0 l/m 0 min 0 min 0,0 UV-I 0 W/m 5,1 km/h (1 Bft)
05.04.2014 00:10 12,1 C 10,6 C 89 % 1011,2 hPa 0,0 l/m 0 min 0 min 0,0 UV-I 0 W/m 0,0 km/h (0 Bft)
05.04.2014 00:12 12,1 C 10,6 C 89 % 1011,2 hPa 0,0 l/m 0 min 0 min 0,0 UV-I 0 W/m 0,0 km/h (0 Bft)
05.04.2014 00:14 12,0 C 10,6 C 89 % 1011,2 hPa 0,0 l/m 0 min 0 min 0,0 UV-I 0 W/m 5,1 km/h (1 Bft)
05.04.2014 00:16 12,0 C 10,6 C 89 % 1011,2 hPa 0,0 l/m 0 min 0 min 0,0 UV-I 0 W/m 5,1 km/h (1 Bft)
05.04.2014 00:18 12,0 C 10,6 C 89 % 1011,3 hPa 0,0 l/m 0 min 0 min 0,0 UV-I 0 W/m 0,0 km/h (0 Bft)
05.04.2014 00:20 11,9 C 10,6 C 89 % 1011,2 hPa 0,0 l/m 0 min 0 min 0,0 UV-I 0 W/m 0,0 km/h (0 Bft)
05.04.2014 00:22 11,9 C 10,6 C 89 % 1011,2 hPa 0,0 l/m 0 min 0 min 0,0 UV-I 0 W/m 7,7 km/h (2 Bft)
05.04.2014 00:24 11,9 C 10,6 C 89 % 1011,2 hPa 0,0 l/m 0 min 0 min 0,0 UV-I 0 W/m 2,6 km/h (1 Bft)
05.04.2014 00:26 11,9 C 10,6 C 89 % 1011,2 hPa 0,0 l/m 0 min 0 min 0,0 UV-I 0 W/m 0,0 km/h (0 Bft)
05.04.2014 00:28 11,9 C 10,6 C 89 % 1011,2 hPa 0,0 l/m 0 min 0 min 0,0 UV-I 0 W/m 0,0 km/h (0 Bft)
05.04.2014 00:30 11,9 C 10,6 C 90 % 1011,2 hPa 0,0 l/m 0 min 0 min 0,0 UV-I 0 W/m 0,0 km/h (0 Bft)
05.04.2014 00:32 11,9 C 10,6 C 90 % 1011,3 hPa 0,0 l/m 0 min 0 min 0,0 UV-I 0 W/m 2,6 km/h (1 Bft)
05.04.2014 00:34 11,8 C 10,6 C 90 % 1011,2 hPa 0,0 l/m 0 min 0 min 0,0 UV-I 0 W/m 0,0 km/h (0 Bft)
05.04.2014 00:36 11,8 C 10,6 C 90 % 1011,3 hPa 0,0 l/m 0 min 0 min 0,0 UV-I 0 W/m 0,0 km/h (0 Bft)
05.04.2014 00:38 11,8 C 10,6 C 90 % 1011,2 hPa 0,0 l/m 0 min 0 min 0,0 UV-I 0 W/m 5,1 km/h (1 Bft)
05.04.2014 00:40 11,8 C 10,6 C 90 % 1011,2 hPa 0,0 l/m 0 min 0 min 0,0 UV-I 0 W/m 0,0 km/h (0 Bft)
05.04.2014 00:42 11,8 C 10,6 C 90 % 1011,2 hPa 0,0 l/m 0 min 0 min 0,0 UV-I 0 W/m 5,1 km/h (1 Bft)
05.04.2014 00:44 11,7 C 10,6 C 90 % 1011,2 hPa 0,0 l/m 0 min 0 min 0,0 UV-I 0 W/m 5,1 km/h (1 Bft)
05.04.2014 00:46 11,7 C 10,6 C 90 % 1011,2 hPa 0,0 l/m 0 min 0 min 0,0 UV-I 0 W/m 2,6 km/h (1 Bft)
05.04.2014 00:48 11,7 C 10,6 C 90 % 1011,2 hPa 0,0 l/m 0 min 0 min 0,0 UV-I 0 W/m 0,0 km/h (0 Bft)
05.04.2014 00:50 11,7 C 10,6 C 90 % 1011,2 hPa 0,0 l/m 0 min 0 min 0,0 UV-I 0 W/m 0,0 km/h (0 Bft)
05.04.2014 00:52 11,7 C 10,6 C 90 % 1011,2 hPa 0,0 l/m 0 min 0 min 0,0 UV-I 0 W/m 0,0 km/h (0 Bft)
05.04.2014 00:54 11,7 C 10,6 C 90 % 1011,4 hPa 0,0 l/m 0 min 0 min 0,0 UV-I 0 W/m 7,7 km/h (2 Bft)
05.04.2014 00:56 11,7 C 10,6 C 90 % 1011,4 hPa 0,0 l/m 0 min 0 min 0,0 UV-I 0 W/m 0,0 km/h (0 Bft)
05.04.2014 00:58 11,7 C 10,6 C 91 % 1011,4 hPa 0,0 l/m 0 min 0 min 0,0 UV-I 0 W/m 0,0 km/h (0 Bft)
05.04.2014 01:00 11,7 C 10,6 C 91 % 1011,4 hPa 0,0 l/m 0 min 0 min 0,0 UV-I 0 W/m 0,0 km/h (0 Bft)
05.04.2014 01:04 11,6 C 10,6 C 91 % 1011,4 hPa 0,0 l/m 0 min 0 min 0,0 UV-I 0 W/m 2,6 km/h (1 Bft)
05.04.2014 01:06 11,6 C 10,6 C 91 % 1011,4 hPa 0,0 l/m 0 min 0 min 0,0 UV-I 0 W/m 7,7 km/h (2 Bft)
05.04.2014 01:08 11,6 C 10,6 C 91 % 1011,4 hPa 0,0 l/m 0 min 0 min 0,0 UV-I 0 W/m 10,3 km/h (2 Bft)
05.04.2014 01:10 11,6 C 10,6 C 91 % 1011,5 hPa 0,0 l/m 0 min 0 min 0,0 UV-I 0 W/m 5,1 km/h (1 Bft)
05.04.2014 01:12 11,6 C 10,6 C 91 % 1011,4 hPa 0,0 l/m 0 min 0 min 0,0 UV-I 0 W/m 10,3 km/h (2 Bft)
05.04.2014 01:14 11,6 C 10,6 C 90 % 1011,5 hPa 0,0 l/m 0 min 0 min 0,0 UV-I 0 W/m 0,0 km/h (0 Bft)
05.04.2014 01:16 11,6 C 10,6 C 90 % 1011,4 hPa 0,0 l/m 0 min 0 min 0,0 UV-I 0 W/m 2,6 km/h (1 Bft)
05.04.2014 01:18 11,6 C 10,6 C 90 % 1011,4 hPa 0,0 l/m 0 min 0 min 0,0 UV-I 0 W/m 0,0 km/h (0 Bft)
05.04.2014 01:20 11,6 C 10,6 C 90 % 1011,4 hPa 0,0 l/m 0 min 0 min 0,0 UV-I 0 W/m 0,0 km/h (0 Bft)
05.04.2014 01:22 11,5 C 10,0 C 90 % 1011,5 hPa 0,0 l/m 0 min 0 min 0,0 UV-I 0 W/m 0,0 km/h (0 Bft)
05.04.2014 01:24 11,5 C 10,0 C 91 % 1011,5 hPa 0,0 l/m 0 min 0 min 0,0 UV-I 0 W/m 2,6 km/h (1 Bft)
05.04.2014 01:26 11,5 C 10,0 C 91 % 1011,6 hPa 0,0 l/m 0 min 0 min 0,0 UV-I 0 W/m 0,0 km/h (0 Bft)
05.04.2014 01:28 11,5 C 10,0 C 91 % 1011,6 hPa 0,0 l/m 0 min 0 min 0,0 UV-I 0 W/m 0,0 km/h (0 Bft)
05.04.2014 01:30 11,4 C 10,0 C 91 % 1011,6 hPa 0,0 l/m 0 min 0 min 0,0 UV-I 0 W/m 0,0 km/h (0 Bft)
05.04.2014 01:32 11,4 C 10,0 C 90 % 1011,6 hPa 0,0 l/m 0 min 0 min 0,0 UV-I 0 W/m 0,0 km/h (0 Bft)
05.04.2014 01:34 11,4 C 10,0 C 90 % 1011,6 hPa 0,0 l/m 0 min 0 min 0,0 UV-I 0 W/m 0,0 km/h (0 Bft)
05.04.2014 01:36 11,4 C 10,0 C 91 % 1011,6 hPa 0,0 l/m 0 min 0 min 0,0 UV-I 0 W/m 0,0 km/h (0 Bft)
05.04.2014 01:38 11,4 C 10,0 C 91 % 1011,6 hPa 0,0 l/m 0 min 0 min 0,0 UV-I 0 W/m 0,0 km/h (0 Bft)
05.04.2014 01:40 11,4 C 10,0 C 91 % 1011,6 hPa 0,0 l/m 0 min 0 min 0,0 UV-I 0 W/m 0,0 km/h (0 Bft)
05.04.2014 01:42 11,3 C 10,0 C 91 % 1011,7 hPa 0,0 l/m 0 min 0 min 0,0 UV-I 0 W/m 0,0 km/h (0 Bft)
05.04.2014 01:44 11,3 C 10,0 C 91 % 1011,7 hPa 0,0 l/m 0 min 0 min 0,0 UV-I 0 W/m 0,0 km/h (0 Bft)
05.04.2014 01:46 11,3 C 10,0 C 91 % 1011,7 hPa 0,0 l/m 0 min 0 min 0,0 UV-I 0 W/m 0,0 km/h (0 Bft)
05.04.2014 01:48 11,3 C 10,0 C 91 % 1011,8 hPa 0,0 l/m 0 min 0 min 0,0 UV-I 0 W/m 0,0 km/h (0 Bft)
05.04.2014 01:50 11,3 C 10,0 C 91 % 1011,8 hPa 0,0 l/m 0 min 0 min 0,0 UV-I 0 W/m 0,0 km/h (0 Bft)
05.04.2014 01:52 11,3 C 10,0 C 91 % 1011,7 hPa 0,0 l/m 0 min 0 min 0,0 UV-I 0 W/m 0,0 km/h (0 Bft)
05.04.2014 01:54 11,3 C 10,0 C 91 % 1011,7 hPa 0,0 l/m 0 min 0 min 0,0 UV-I 0 W/m 5,1 km/h (1 Bft)
05.04.2014 01:56 11,3 C 10,0 C 91 % 1011,8 hPa 0,0 l/m 0 min 0 min 0,0 UV-I 0 W/m 0,0 km/h (0 Bft)
05.04.2014 01:58 11,3 C 10,0 C 91 % 1011,8 hPa 0,0 l/m 0 min 0 min 0,0 UV-I 0 W/m 0,0 km/h (0 Bft)
05.04.2014 02:00 11,3 C 10,0 C 92 % 1011,8 hPa 0,0 l/m 0 min 0 min 0,0 UV-I 0 W/m 0,0 km/h (0 Bft)
05.04.2014 02:02 11,2 C 10,0 C 91 % 1011,7 hPa 0,0 l/m 0 min 0 min 0,0 UV-I 0 W/m 0,0 km/h (0 Bft)
05.04.2014 02:04 11,2 C 10,0 C 92 % 1011,7 hPa 0,0 l/m 0 min 0 min 0,0 UV-I 0 W/m 0,0 km/h (0 Bft)
05.04.2014 02:06 11,2 C 10,0 C 92 % 1011,7 hPa 0,0 l/m 0 min 0 min 0,0 UV-I 0 W/m 0,0 km/h (0 Bft)
05.04.2014 02:08 11,2 C 10,0 C 92 % 1011,6 hPa 0,0 l/m 0 min 0 min 0,0 UV-I 0 W/m 2,6 km/h (1 Bft)
05.04.2014 02:10 11,2 C 10,0 C 92 % 1011,6 hPa 0,0 l/m 0 min 0 min 0,0 UV-I 0 W/m 5,1 km/h (1 Bft)
05.04.2014 02:12 11,2 C 10,0 C 92 % 1011,6 hPa 0,0 l/m 0 min 0 min 0,0 UV-I 0 W/m 0,0 km/h (0 Bft)
05.04.2014 02:14 11,2 C 10,0 C 92 % 1011,6 hPa 0,0 l/m 0 min 0 min 0,0 UV-I 0 W/m 5,1 km/h (1 Bft)
05.04.2014 02:16 11,2 C 10,0 C 92 % 1011,6 hPa 0,0 l/m 0 min 0 min 0,0 UV-I 0 W/m 5,1 km/h (1 Bft)
05.04.2014 02:18 11,2 C 10,0 C 92 % 1011,6 hPa 0,0 l/m 0 min 0 min 0,0 UV-I 0 W/m 5,1 km/h (1 Bft)
05.04.2014 02:20 11,2 C 10,0 C 91 % 1011,5 hPa 0,0 l/m 0 min 0 min 0,0 UV-I 0 W/m 0,0 km/h (0 Bft)
05.04.2014 02:22 11,2 C 10,0 C 91 % 1011,5 hPa 0,0 l/m 0 min 0 min 0,0 UV-I 0 W/m 2,6 km/h (1 Bft)
05.04.2014 02:24 11,2 C 10,0 C 91 % 1011,5 hPa 0,0 l/m 0 min 0 min 0,0 UV-I 0 W/m 0,0 km/h (0 Bft)
05.04.2014 02:26 11,2 C 10,0 C 91 % 1011,5 hPa 0,0 l/m 0 min 0 min 0,0 UV-I 0 W/m 7,7 km/h (2 Bft)
05.04.2014 02:28 11,3 C 10,0 C 92 % 1011,5 hPa 0,0 l/m 0 min 0 min 0,0 UV-I 0 W/m 12,9 km/h (3 Bft)
05.04.2014 02:30 11,3 C 10,0 C 92 % 1011,5 hPa 0,0 l/m 0 min 0 min 0,0 UV-I 0 W/m 2,6 km/h (1 Bft)
05.04.2014 02:32 11,3 C 10,0 C 92 % 1011,5 hPa 0,0 l/m 0 min 0 min 0,0 UV-I 0 W/m 7,7 km/h (2 Bft)
05.04.2014 02:34 11,3 C 10,0 C 92 % 1011,6 hPa 0,0 l/m 0 min 0 min 0,0 UV-I 0 W/m 7,7 km/h (2 Bft)
05.04.2014 02:36 11,3 C 10,0 C 91 % 1011,6 hPa 0,0 l/m 0 min 0 min 0,0 UV-I 0 W/m 2,6 km/h (1 Bft)
05.04.2014 02:38 11,3 C 10,0 C 91 % 1011,6 hPa 0,0 l/m 0 min 0 min 0,0 UV-I 0 W/m 0,0 km/h (0 Bft)
05.04.2014 02:40 11,3 C 10,0 C 91 % 1011,6 hPa 0,0 l/m 0 min 0 min 0,0 UV-I 0 W/m 0,0 km/h (0 Bft)
05.04.2014 02:42 11,3 C 10,0 C 91 % 1011,6 hPa 0,0 l/m 0 min 0 min 0,0 UV-I 0 W/m 0,0 km/h (0 Bft)
05.04.2014 02:44 11,3 C 10,0 C 91 % 1011,6 hPa 0,0 l/m 0 min 0 min 0,0 UV-I 0 W/m 5,1 km/h (1 Bft)
05.04.2014 02:46 11,3 C 10,0 C 91 % 1011,6 hPa 0,0 l/m 0 min 0 min 0,0 UV-I 0 W/m 0,0 km/h (0 Bft)
05.04.2014 02:48 11,3 C 10,0 C 91 % 1011,6 hPa 0,0 l/m 0 min 0 min 0,0 UV-I 0 W/m 0,0 km/h (0 Bft)
05.04.2014 02:50 11,3 C 10,0 C 91 % 1011,6 hPa 0,0 l/m 0 min 0 min 0,0 UV-I 0 W/m 0,0 km/h (0 Bft)
05.04.2014 02:52 11,3 C 10,0 C 91 % 1011,6 hPa 0,0 l/m 0 min 0 min 0,0 UV-I 0 W/m 2,6 km/h (1 Bft)
05.04.2014 02:54 11,3 C 10,0 C 91 % 1011,5 hPa 0,0 l/m 0 min 0 min 0,0 UV-I 0 W/m 5,1 km/h (1 Bft)
05.04.2014 02:56 11,3 C 10,0 C 91 % 1011,5 hPa 0,0 l/m 0 min 0 min 0,0 UV-I 0 W/m 0,0 km/h (0 Bft)
05.04.2014 02:58 11,3 C 10,0 C 91 % 1011,5 hPa 0,0 l/m 0 min 0 min 0,0 UV-I 0 W/m 10,3 km/h (2 Bft)
05.04.2014 03:00 11,3 C 10,0 C 91 % 1011,5 hPa 0,0 l/m 0 min 0 min 0,0 UV-I 0 W/m 0,0 km/h (0 Bft)
05.04.2014 03:02 11,3 C 10,0 C 91 % 1011,5 hPa 0,0 l/m 0 min 0 min 0,0 UV-I 0 W/m 0,0 km/h (0 Bft)
05.04.2014 03:04 11,2 C 10,0 C 91 % 1011,6 hPa 0,0 l/m 0 min 0 min 0,0 UV-I 0 W/m 0,0 km/h (0 Bft)
05.04.2014 03:06 11,3 C 10,0 C 91 % 1011,5 hPa 0,0 l/m 0 min 0 min 0,0 UV-I 0 W/m 2,6 km/h (1 Bft)
05.04.2014 03:08 11,2 C 10,0 C 91 % 1011,5 hPa 0,0 l/m 0 min 0 min 0,0 UV-I 0 W/m 5,1 km/h (1 Bft)
05.04.2014 03:10 11,2 C 10,0 C 91 % 1011,5 hPa 0,0 l/m 0 min 0 min 0,0 UV-I 0 W/m 2,6 km/h (1 Bft)
05.04.2014 03:12 11,2 C 10,0 C 91 % 1011,5 hPa 0,0 l/m 0 min 0 min 0,0 UV-I 0 W/m 0,0 km/h (0 Bft)
05.04.2014 03:14 11,2 C 10,0 C 91 % 1011,5 hPa 0,0 l/m 0 min 0 min 0,0 UV-I 0 W/m 0,0 km/h (0 Bft)
05.04.2014 03:16 11,2 C 10,0 C 91 % 1011,5 hPa 0,0 l/m 0 min 0 min 0,0 UV-I 0 W/m 0,0 km/h (0 Bft)
05.04.2014 03:18 11,2 C 10,0 C 91 % 1011,6 hPa 0,0 l/m 0 min 0 min 0,0 UV-I 0 W/m 2,6 km/h (1 Bft)
05.04.2014 03:20 11,2 C 10,0 C 91 % 1011,6 hPa 0,0 l/m 0 min 0 min 0,0 UV-I 0 W/m 0,0 km/h (0 Bft)
05.04.2014 03:22 11,2 C 10,0 C 91 % 1011,6 hPa 0,0 l/m 0 min 0 min 0,0 UV-I 0 W/m 0,0 km/h (0 Bft)
05.04.2014 03:24 11,2 C 10,0 C 91 % 1011,6 hPa 0,0 l/m 0 min 0 min 0,0 UV-I 0 W/m 0,0 km/h (0 Bft)
05.04.2014 03:26 11,1 C 10,0 C 91 % 1011,6 hPa 0,0 l/m 0 min 0 min 0,0 UV-I 0 W/m 0,0 km/h (0 Bft)
05.04.2014 03:28 11,1 C 10,0 C 91 % 1011,6 hPa 0,0 l/m 0 min 0 min 0,0 UV-I 0 W/m 0,0 km/h (0 Bft)
05.04.2014 03:30 11,1 C 10,0 C 91 % 1011,6 hPa 0,0 l/m 0 min 0 min 0,0 UV-I 0 W/m 0,0 km/h (0 Bft)
05.04.2014 03:32 11,1 C 10,0 C 91 % 1011,6 hPa 0,0 l/m 0 min 0 min 0,0 UV-I 0 W/m 0,0 km/h (0 Bft)
05.04.2014 03:34 11,1 C 10,0 C 92 % 1011,6 hPa 0,0 l/m 0 min 0 min 0,0 UV-I 0 W/m 7,7 km/h (2 Bft)
05.04.2014 03:36 11,1 C 10,0 C 92 % 1011,6 hPa 0,0 l/m 0 min 0 min 0,0 UV-I 0 W/m 0,0 km/h (0 Bft)
05.04.2014 03:38 11,1 C 10,0 C 92 % 1011,6 hPa 0,0 l/m 0 min 0 min 0,0 UV-I 0 W/m 0,0 km/h (0 Bft)
05.04.2014 03:40 11,1 C 10,0 C 92 % 1011,6 hPa 0,0 l/m 0 min 0 min 0,0 UV-I 0 W/m 0,0 km/h (0 Bft)
05.04.2014 03:42 11,1 C 10,0 C 92 % 1011,6 hPa 0,0 l/m 0 min 0 min 0,0 UV-I 0 W/m 0,0 km/h (0 Bft)
05.04.2014 03:44 11,0 C 10,0 C 92 % 1011,5 hPa 0,0 l/m 0 min 0 min 0,0 UV-I 0 W/m 0,0 km/h (0 Bft)
05.04.2014 03:46 11,0 C 10,0 C 92 % 1011,6 hPa 0,0 l/m 0 min 0 min 0,0 UV-I 0 W/m 0,0 km/h (0 Bft)
05.04.2014 03:48 11,0 C 10,0 C 92 % 1011,6 hPa 0,0 l/m 0 min 0 min 0,0 UV-I 0 W/m 0,0 km/h (0 Bft)
05.04.2014 03:50 11,0 C 10,0 C 92 % 1011,6 hPa 0,0 l/m 0 min 0 min 0,0 UV-I 0 W/m 0,0 km/h (0 Bft)
05.04.2014 03:52 11,0 C 10,0 C 92 % 1011,6 hPa 0,0 l/m 0 min 0 min 0,0 UV-I 0 W/m 0,0 km/h (0 Bft)
05.04.2014 03:54 10,9 C 10,0 C 95 % 1011,6 hPa 0,0 l/m 0 min 0 min 0,0 UV-I 0 W/m 2,6 km/h (1 Bft)
05.04.2014 03:56 10,9 C 10,0 C 92 % 1011,6 hPa 0,0 l/m 0 min 0 min 0,0 UV-I 0 W/m 0,0 km/h (0 Bft)
05.04.2014 03:58 10,9 C 10,0 C 92 % 1011,7 hPa 0,0 l/m 0 min 0 min 0,0 UV-I 0 W/m 0,0 km/h (0 Bft)
05.04.2014 04:00 10,9 C 10,0 C 92 % 1011,7 hPa 0,0 l/m 0 min 0 min 0,0 UV-I 0 W/m 0,0 km/h (0 Bft)
05.04.2014 04:05 10,9 C 10,0 C 95 % 1011,8 hPa 0,0 l/m 0 min 0 min 0,0 UV-I 0 W/m 2,6 km/h (1 Bft)
05.04.2014 04:06 10,9 C 10,0 C 95 % 1011,8 hPa 0,0 l/m 0 min 0 min 0,0 UV-I 0 W/m 2,6 km/h (1 Bft)
05.04.2014 04:08 10,9 C 10,0 C 92 % 1011,9 hPa 0,0 l/m 0 min 0 min 0,0 UV-I 0 W/m 0,0 km/h (0 Bft)
05.04.2014 04:10 10,9 C 10,0 C 95 % 1011,8 hPa 0,0 l/m 0 min 0 min 0,0 UV-I 0 W/m 0,0 km/h (0 Bft)
05.04.2014 04:12 10,9 C 10,0 C 95 % 1011,9 hPa 0,0 l/m 0 min 0 min 0,0 UV-I 0 W/m 0,0 km/h (0 Bft)
05.04.2014 04:14 10,9 C 10,0 C 92 % 1011,9 hPa 0,0 l/m 0 min 0 min 0,0 UV-I 0 W/m 0,0 km/h (0 Bft)
05.04.2014 04:16 10,9 C 10,0 C 95 % 1011,9 hPa 0,0 l/m 0 min 0 min 0,0 UV-I 0 W/m 0,0 km/h (0 Bft)
05.04.2014 04:18 10,9 C 10,0 C 95 % 1011,9 hPa 0,0 l/m 0 min 0 min 0,0 UV-I 0 W/m 0,0 km/h (0 Bft)
05.04.2014 04:20 10,9 C 10,0 C 92 % 1011,9 hPa 0,0 l/m 0 min 0 min 0,0 UV-I 0 W/m 0,0 km/h (0 Bft)
05.04.2014 04:22 10,9 C 10,0 C 92 % 1012,0 hPa 0,0 l/m 0 min 0 min 0,0 UV-I 0 W/m 0,0 km/h (0 Bft)
05.04.2014 04:24 10,9 C 10,0 C 92 % 1012,0 hPa 0,0 l/m 0 min 0 min 0,0 UV-I 0 W/m 0,0 km/h (0 Bft)
05.04.2014 04:26 10,9 C 10,0 C 92 % 1012,0 hPa 0,0 l/m 0 min 0 min 0,0 UV-I 0 W/m 0,0 km/h (0 Bft)
05.04.2014 04:28 10,9 C 10,0 C 92 % 1012,1 hPa 0,0 l/m 0 min 0 min 0,0 UV-I 0 W/m 0,0 km/h (0 Bft)
05.04.2014 04:30 10,9 C 10,0 C 92 % 1012,1 hPa 0,0 l/m 0 min 0 min 0,0 UV-I 0 W/m 0,0 km/h (0 Bft)
05.04.2014 04:32 10,9 C 10,0 C 92 % 1012,1 hPa 0,0 l/m 0 min 0 min 0,0 UV-I 0 W/m 0,0 km/h (0 Bft)
05.04.2014 04:34 10,9 C 10,0 C 92 % 1012,1 hPa 0,0 l/m 0 min 0 min 0,0 UV-I 0 W/m 0,0 km/h (0 Bft)
05.04.2014 04:36 10,9 C 10,0 C 92 % 1012,2 hPa 0,0 l/m 0 min 0 min 0,0 UV-I 0 W/m 0,0 km/h (0 Bft)
05.04.2014 04:38 10,9 C 10,0 C 93 % 1012,1 hPa 0,0 l/m 0 min 0 min 0,0 UV-I 0 W/m 0,0 km/h (0 Bft)
05.04.2014 04:40 10,9 C 10,0 C 93 % 1012,2 hPa 0,0 l/m 0 min 0 min 0,0 UV-I 0 W/m 0,0 km/h (0 Bft)
05.04.2014 04:42 10,9 C 10,0 C 93 % 1012,1 hPa 0,0 l/m 0 min 0 min 0,0 UV-I 0 W/m 0,0 km/h (0 Bft)
05.04.2014 04:44 10,9 C 10,0 C 93 % 1012,1 hPa 0,0 l/m 0 min 0 min 0,0 UV-I 0 W/m 0,0 km/h (0 Bft)
05.04.2014 04:46 10,9 C 10,0 C 93 % 1012,2 hPa 0,0 l/m 0 min 0 min 0,0 UV-I 0 W/m 0,0 km/h (0 Bft)
05.04.2014 04:48 10,9 C 10,0 C 93 % 1012,2 hPa 0,0 l/m 0 min 0 min 0,0 UV-I 0 W/m 0,0 km/h (0 Bft)
05.04.2014 04:50 10,9 C 10,0 C 93 % 1012,2 hPa 0,0 l/m 0 min 0 min 0,0 UV-I 0 W/m 0,0 km/h (0 Bft)
05.04.2014 04:52 10,9 C 10,0 C 93 % 1012,1 hPa 0,0 l/m 0 min 0 min 0,0 UV-I 0 W/m 0,0 km/h (0 Bft)
05.04.2014 04:54 10,9 C 10,0 C 93 % 1012,2 hPa 0,0 l/m 0 min 0 min 0,0 UV-I 0 W/m 0,0 km/h (0 Bft)
05.04.2014 04:56 10,9 C 10,0 C 93 % 1012,2 hPa 0,0 l/m 0 min 0 min 0,0 UV-I 0 W/m 0,0 km/h (0 Bft)
05.04.2014 04:58 10,9 C 10,0 C 93 % 1012,1 hPa 0,0 l/m 0 min 0 min 0,0 UV-I 0 W/m 0,0 km/h (0 Bft)
05.04.2014 05:00 10,9 C 10,0 C 93 % 1012,3 hPa 0,0 l/m 0 min 0 min 0,0 UV-I 0 W/m 0,0 km/h (0 Bft)
05.04.2014 05:02 10,9 C 10,0 C 93 % 1012,2 hPa 0,0 l/m 0 min 0 min 0,0 UV-I 0 W/m 0,0 km/h (0 Bft)
05.04.2014 05:04 10,8 C 10,0 C 93 % 1012,3 hPa 0,0 l/m 0 min 0 min 0,0 UV-I 0 W/m 0,0 km/h (0 Bft)
05.04.2014 05:06 10,9 C 10,0 C 93 % 1012,3 hPa 0,0 l/m 0 min 0 min 0,0 UV-I 0 W/m 0,0 km/h (0 Bft)
05.04.2014 05:08 10,9 C 10,0 C 93 % 1012,3 hPa 0,0 l/m 0 min 0 min 0,0 UV-I 0 W/m 0,0 km/h (0 Bft)
05.04.2014 05:10 10,9 C 10,0 C 93 % 1012,3 hPa 0,0 l/m 0 min 0 min 0,0 UV-I 0 W/m 0,0 km/h (0 Bft)
05.04.2014 05:12 10,9 C 10,0 C 93 % 1012,3 hPa 0,0 l/m 0 min 0 min 0,0 UV-I 0 W/m 0,0 km/h (0 Bft)
05.04.2014 05:14 10,9 C 10,0 C 93 % 1012,3 hPa 0,0 l/m 0 min 0 min 0,0 UV-I 0 W/m 0,0 km/h (0 Bft)
05.04.2014 05:16 10,9 C 10,0 C 93 % 1012,3 hPa 0,0 l/m 0 min 0 min 0,0 UV-I 0 W/m 0,0 km/h (0 Bft)
05.04.2014 05:18 10,9 C 10,0 C 93 % 1012,3 hPa 0,0 l/m 0 min 0 min 0,0 UV-I 0 W/m 0,0 km/h (0 Bft)
05.04.2014 05:20 10,9 C 10,0 C 93 % 1012,4 hPa 0,0 l/m 0 min 0 min 0,0 UV-I 0 W/m 0,0 km/h (0 Bft)
05.04.2014 05:22 10,9 C 10,0 C 93 % 1012,4 hPa 0,0 l/m 0 min 0 min 0,0 UV-I 0 W/m 0,0 km/h (0 Bft)
05.04.2014 05:24 10,9 C 10,0 C 93 % 1012,4 hPa 0,0 l/m 0 min 0 min 0,0 UV-I 0 W/m 0,0 km/h (0 Bft)
05.04.2014 05:26 10,9 C 10,0 C 93 % 1012,5 hPa 0,0 l/m 0 min 0 min 0,0 UV-I 0 W/m 0,0 km/h (0 Bft)
05.04.2014 05:28 10,9 C 10,0 C 93 % 1012,4 hPa 0,0 l/m 0 min 0 min 0,0 UV-I 0 W/m 0,0 km/h (0 Bft)
05.04.2014 05:30 10,9 C 10,0 C 93 % 1012,4 hPa 0,0 l/m 0 min 0 min 0,0 UV-I 0 W/m 0,0 km/h (0 Bft)
05.04.2014 05:32 10,9 C 10,0 C 93 % 1012,5 hPa 0,0 l/m 0 min 0 min 0,0 UV-I 0 W/m 0,0 km/h (0 Bft)
05.04.2014 05:34 10,9 C 10,0 C 93 % 1012,5 hPa 0,0 l/m 0 min 0 min 0,0 UV-I 0 W/m 0,0 km/h (0 Bft)
05.04.2014 05:36 10,9 C 10,0 C 93 % 1012,5 hPa 0,0 l/m 0 min 0 min 0,0 UV-I 0 W/m 0,0 km/h (0 Bft)
05.04.2014 05:38 10,9 C 10,0 C 93 % 1012,5 hPa 0,0 l/m 0 min 0 min 0,0 UV-I 0 W/m 0,0 km/h (0 Bft)
05.04.2014 05:40 10,9 C 10,0 C 93 % 1012,5 hPa 0,0 l/m 0 min 0 min 0,0 UV-I 0 W/m 0,0 km/h (0 Bft)
05.04.2014 05:42 10,9 C 10,0 C 93 % 1012,4 hPa 0,0 l/m 0 min 0 min 0,0 UV-I 0 W/m 0,0 km/h (0 Bft)
05.04.2014 05:44 10,9 C 10,0 C 93 % 1012,5 hPa 0,0 l/m 0 min 0 min 0,0 UV-I 0 W/m 0,0 km/h (0 Bft)
05.04.2014 05:46 10,9 C 10,0 C 93 % 1012,5 hPa 0,0 l/m 0 min 0 min 0,0 UV-I 0 W/m 0,0 km/h (0 Bft)
05.04.2014 05:48 10,9 C 10,0 C 93 % 1012,5 hPa 0,0 l/m 0 min 0 min 0,0 UV-I 0 W/m 0,0 km/h (0 Bft)
05.04.2014 05:50 10,9 C 10,0 C 93 % 1012,5 hPa 0,0 l/m 0 min 0 min 0,0 UV-I 0 W/m 0,0 km/h (0 Bft)
05.04.2014 05:52 10,9 C 10,0 C 93 % 1012,5 hPa 0,0 l/m 0 min 0 min 0,0 UV-I 0 W/m 0,0 km/h (0 Bft)
05.04.2014 05:54 10,9 C 10,0 C 93 % 1012,5 hPa 0,0 l/m 0 min 0 min 0,0 UV-I 0 W/m 0,0 km/h (0 Bft)
05.04.2014 05:56 10,9 C 10,0 C 93 % 1012,5 hPa 0,0 l/m 0 min 0 min 0,0 UV-I 0 W/m 0,0 km/h (0 Bft)
05.04.2014 05:58 10,9 C 10,0 C 93 % 1012,5 hPa 0,0 l/m 0 min 0 min 0,0 UV-I 0 W/m 0,0 km/h (0 Bft)
05.04.2014 06:00 10,9 C 10,0 C 93 % 1012,5 hPa 0,0 l/m 0 min 0 min 0,0 UV-I 0 W/m 0,0 km/h (0 Bft)
05.04.2014 06:02 10,9 C 10,0 C 93 % 1012,6 hPa 0,0 l/m 0 min 0 min 0,0 UV-I 0 W/m 0,0 km/h (0 Bft)
05.04.2014 06:04 10,9 C 10,0 C 93 % 1012,6 hPa 0,0 l/m 0 min 0 min 0,0 UV-I 0 W/m 0,0 km/h (0 Bft)
05.04.2014 06:06 10,9 C 10,0 C 93 % 1012,6 hPa 0,0 l/m 0 min 0 min 0,0 UV-I 0 W/m 0,0 km/h (0 Bft)
05.04.2014 06:08 10,9 C 10,0 C 92 % 1012,6 hPa 0,0 l/m 0 min 0 min 0,0 UV-I 0 W/m 0,0 km/h (0 Bft)
05.04.2014 06:10 10,9 C 10,0 C 92 % 1012,6 hPa 0,0 l/m 0 min 0 min 0,0 UV-I 0 W/m 0,0 km/h (0 Bft)
05.04.2014 06:12 10,9 C 10,0 C 92 % 1012,6 hPa 0,0 l/m 0 min 0 min 0,0 UV-I 0 W/m 0,0 km/h (0 Bft)
05.04.2014 06:14 10,9 C 10,0 C 92 % 1012,6 hPa 0,0 l/m 0 min 0 min 0,0 UV-I 0 W/m 0,0 km/h (0 Bft)
05.04.2014 06:16 10,9 C 10,0 C 92 % 1012,6 hPa 0,0 l/m 0 min 0 min 0,0 UV-I 0 W/m 0,0 km/h (0 Bft)
05.04.2014 06:18 10,9 C 10,0 C 92 % 1012,6 hPa 0,0 l/m 0 min 0 min 0,0 UV-I 0 W/m 0,0 km/h (0 Bft)
05.04.2014 06:20 10,9 C 10,0 C 92 % 1012,6 hPa 0,0 l/m 0 min 0 min 0,0 UV-I 0 W/m 0,0 km/h (0 Bft)
05.04.2014 06:22 10,9 C 10,0 C 92 % 1012,7 hPa 0,0 l/m 0 min 0 min 0,0 UV-I 0 W/m 0,0 km/h (0 Bft)
05.04.2014 06:24 10,9 C 10,0 C 92 % 1012,7 hPa 0,0 l/m 0 min 0 min 0,0 UV-I 0 W/m 0,0 km/h (0 Bft)
05.04.2014 06:26 10,9 C 10,0 C 92 % 1012,7 hPa 0,0 l/m 0 min 0 min 0,0 UV-I 0 W/m 0,0 km/h (0 Bft)
05.04.2014 06:28 10,9 C 10,0 C 92 % 1012,7 hPa 0,0 l/m 0 min 0 min 0,0 UV-I 0 W/m 0,0 km/h (0 Bft)
05.04.2014 06:30 10,9 C 10,0 C 92 % 1012,7 hPa 0,0 l/m 0 min 0 min 0,0 UV-I 0 W/m 0,0 km/h (0 Bft)
05.04.2014 06:32 10,9 C 10,0 C 92 % 1012,8 hPa 0,0 l/m 0 min 0 min 0,0 UV-I 0 W/m 0,0 km/h (0 Bft)
05.04.2014 06:34 10,9 C 10,0 C 92 % 1012,8 hPa 0,0 l/m 0 min 0 min 0,0 UV-I 0 W/m 0,0 km/h (0 Bft)
05.04.2014 06:36 10,9 C 10,0 C 92 % 1012,8 hPa 0,0 l/m 0 min 0 min 0,0 UV-I 0 W/m 0,0 km/h (0 Bft)
05.04.2014 06:38 10,9 C 10,0 C 92 % 1012,8 hPa 0,0 l/m 0 min 0 min 0,0 UV-I 0 W/m 0,0 km/h (0 Bft)
05.04.2014 06:40 10,8 C 10,0 C 92 % 1012,8 hPa 0,0 l/m 0 min 0 min 0,0 UV-I 0 W/m 0,0 km/h (0 Bft)
05.04.2014 06:42 10,8 C 10,0 C 92 % 1012,9 hPa 0,0 l/m 0 min 0 min 0,0 UV-I 0 W/m 0,0 km/h (0 Bft)
05.04.2014 06:44 10,8 C 10,0 C 92 % 1012,9 hPa 0,0 l/m 0 min 0 min 0,0 UV-I 0 W/m 0,0 km/h (0 Bft)
05.04.2014 06:46 10,8 C 10,0 C 92 % 1012,9 hPa 0,0 l/m 0 min 0 min 0,0 UV-I 0 W/m 0,0 km/h (0 Bft)
05.04.2014 06:48 10,8 C 10,0 C 92 % 1013,0 hPa 0,0 l/m 0 min 0 min 0,0 UV-I 0 W/m 0,0 km/h (0 Bft)
05.04.2014 06:50 10,8 C 10,0 C 92 % 1012,9 hPa 0,0 l/m 0 min 0 min 0,0 UV-I 0 W/m 0,0 km/h (0 Bft)
05.04.2014 06:52 10,8 C 9,4 C 92 % 1013,0 hPa 0,0 l/m 0 min 0 min 0,0 UV-I 0 W/m 0,0 km/h (0 Bft)
05.04.2014 06:54 10,8 C 9,4 C 92 % 1013,0 hPa 0,0 l/m 0 min 0 min 0,0 UV-I 0 W/m 0,0 km/h (0 Bft)
05.04.2014 06:56 10,8 C 9,4 C 92 % 1013,0 hPa 0,0 l/m 0 min 0 min 0,0 UV-I 0 W/m 0,0 km/h (0 Bft)
05.04.2014 06:58 10,7 C 9,4 C 92 % 1013,0 hPa 0,0 l/m 0 min 0 min 0,0 UV-I 0 W/m 0,0 km/h (0 Bft)
05.04.2014 07:00 10,7 C 9,4 C 92 % 1013,0 hPa 0,0 l/m 0 min 0 min 0,0 UV-I 0 W/m 0,0 km/h (0 Bft)
05.04.2014 07:02 10,7 C 9,4 C 92 % 1013,0 hPa 0,0 l/m 0 min 0 min 0,0 UV-I 0 W/m 0,0 km/h (0 Bft)
05.04.2014 07:04 10,7 C 9,4 C 92 % 1013,1 hPa 0,0 l/m 0 min 0 min 0,0 UV-I 0 W/m 0,0 km/h (0 Bft)
05.04.2014 07:06 10,7 C 9,4 C 92 % 1013,0 hPa 0,0 l/m 0 min 0 min 0,0 UV-I 0 W/m 0,0 km/h (0 Bft)
05.04.2014 07:08 10,7 C 9,4 C 92 % 1013,0 hPa 0,0 l/m 0 min 0 min 0,0 UV-I 0 W/m 0,0 km/h (0 Bft)
05.04.2014 07:10 10,6 C 9,4 C 92 % 1013,1 hPa 0,0 l/m 0 min 0 min 0,0 UV-I 0 W/m 0,0 km/h (0 Bft)
05.04.2014 07:12 10,6 C 9,4 C 92 % 1013,0 hPa 0,0 l/m 0 min 0 min 0,0 UV-I 5 W/m 0,0 km/h (0 Bft)
05.04.2014 07:14 10,6 C 9,4 C 92 % 1013,0 hPa 0,0 l/m 0 min 0 min 0,0 UV-I 5 W/m 0,0 km/h (0 Bft)
05.04.2014 07:16 10,6 C 9,4 C 92 % 1013,1 hPa 0,0 l/m 0 min 0 min 0,0 UV-I 5 W/m 0,0 km/h (0 Bft)
05.04.2014 07:18 10,6 C 9,4 C 92 % 1013,1 hPa 0,0 l/m 0 min 0 min 0,0 UV-I 7 W/m 0,0 km/h (0 Bft)
05.04.2014 07:20 10,5 C 9,4 C 92 % 1013,1 hPa 0,0 l/m 0 min 0 min 0,0 UV-I 7 W/m 0,0 km/h (0 Bft)
05.04.2014 07:22 10,5 C 9,4 C 92 % 1013,2 hPa 0,0 l/m 0 min 0 min 0,0 UV-I 9 W/m 0,0 km/h (0 Bft)
05.04.2014 07:24 10,5 C 9,4 C 92 % 1013,1 hPa 0,0 l/m 0 min 0 min 0,0 UV-I 11 W/m 0,0 km/h (0 Bft)
05.04.2014 07:26 10,4 C 9,4 C 93 % 1013,2 hPa 0,0 l/m 0 min 0 min 0,0 UV-I 11 W/m 0,0 km/h (0 Bft)
05.04.2014 07:28 10,4 C 9,4 C 93 % 1013,3 hPa 0,0 l/m 0 min 0 min 0,0 UV-I 12 W/m 0,0 km/h (0 Bft)
05.04.2014 07:30 10,4 C 9,4 C 93 % 1013,2 hPa 0,0 l/m 0 min 0 min 0,0 UV-I 14 W/m 0,0 km/h (0 Bft)
05.04.2014 07:32 10,4 C 9,4 C 93 % 1013,3 hPa 0,0 l/m 0 min 0 min 0,0 UV-I 16 W/m 2,6 km/h (1 Bft)
05.04.2014 07:34 10,3 C 9,4 C 93 % 1013,3 hPa 0,0 l/m 0 min 0 min 0,0 UV-I 18 W/m 0,0 km/h (0 Bft)
05.04.2014 07:36 10,3 C 9,4 C 93 % 1013,3 hPa 0,0 l/m 0 min 0 min 0,0 UV-I 19 W/m 0,0 km/h (0 Bft)
05.04.2014 07:38 10,3 C 9,4 C 93 % 1013,3 hPa 0,0 l/m 0 min 0 min 0,0 UV-I 21 W/m 2,6 km/h (1 Bft)
05.04.2014 07:40 10,3 C 9,4 C 93 % 1013,3 hPa 0,0 l/m 0 min 0 min 0,0 UV-I 23 W/m 0,0 km/h (0 Bft)
05.04.2014 07:42 10,3 C 9,4 C 93 % 1013,3 hPa 0,0 l/m 0 min 0 min 0,0 UV-I 25 W/m 0,0 km/h (0 Bft)
05.04.2014 07:44 10,3 C 9,4 C 93 % 1013,3 hPa 0,0 l/m 0 min 0 min 0,0 UV-I 26 W/m 0,0 km/h (0 Bft)
05.04.2014 07:46 10,3 C 9,4 C 93 % 1013,3 hPa 0,0 l/m 0 min 0 min 0,0 UV-I 28 W/m 0,0 km/h (0 Bft)
05.04.2014 07:48 10,3 C 9,4 C 93 % 1013,3 hPa 0,0 l/m 0 min 0 min 0,0 UV-I 30 W/m 0,0 km/h (0 Bft)
05.04.2014 07:50 10,3 C 9,4 C 93 % 1013,3 hPa 0,0 l/m 0 min 0 min 0,0 UV-I 32 W/m 0,0 km/h (0 Bft)
05.04.2014 07:52 10,3 C 9,4 C 93 % 1013,3 hPa 0,0 l/m 0 min 0 min 0,0 UV-I 32 W/m 0,0 km/h (0 Bft)
05.04.2014 07:54 10,3 C 9,4 C 93 % 1013,4 hPa 0,0 l/m 0 min 0 min 0,0 UV-I 33 W/m 0,0 km/h (0 Bft)
05.04.2014 07:56 10,3 C 9,4 C 93 % 1013,4 hPa 0,0 l/m 0 min 0 min 0,0 UV-I 35 W/m 0,0 km/h (0 Bft)
05.04.2014 07:58 10,3 C 9,4 C 93 % 1013,4 hPa 0,0 l/m 0 min 0 min 0,0 UV-I 37 W/m 0,0 km/h (0 Bft)
05.04.2014 08:00 10,3 C 9,4 C 93 % 1013,4 hPa 0,0 l/m 0 min 0 min 0,0 UV-I 39 W/m 0,0 km/h (0 Bft)
05.04.2014 08:02 10,3 C 9,4 C 93 % 1013,4 hPa 0,0 l/m 0 min 0 min 0,0 UV-I 42 W/m 0,0 km/h (0 Bft)
05.04.2014 08:04 10,3 C 9,4 C 93 % 1013,4 hPa 0,0 l/m 0 min 0 min 0,0 UV-I 44 W/m 0,0 km/h (0 Bft)
05.04.2014 08:06 10,3 C 9,4 C 93 % 1013,4 hPa 0,0 l/m 0 min 0 min 0,0 UV-I 46 W/m 0,0 km/h (0 Bft)
05.04.2014 08:08 10,3 C 9,4 C 93 % 1013,4 hPa 0,0 l/m 0 min 0 min 0,0 UV-I 47 W/m 0,0 km/h (0 Bft)
05.04.2014 08:10 10,3 C 9,4 C 93 % 1013,4 hPa 0,0 l/m 0 min 0 min 0,0 UV-I 51 W/m 0,0 km/h (0 Bft)
05.04.2014 08:12 10,3 C 9,4 C 93 % 1013,5 hPa 0,0 l/m 0 min 0 min 0,0 UV-I 53 W/m 0,0 km/h (0 Bft)
05.04.2014 08:14 10,3 C 9,4 C 93 % 1013,5 hPa 0,0 l/m 0 min 0 min 0,0 UV-I 54 W/m 0,0 km/h (0 Bft)
05.04.2014 08:16 10,3 C 9,4 C 93 % 1013,5 hPa 0,0 l/m 0 min 0 min 0,0 UV-I 54 W/m 0,0 km/h (0 Bft)
05.04.2014 08:18 10,4 C 10,0 C 93 % 1013,5 hPa 0,0 l/m 0 min 0 min 0,0 UV-I 56 W/m 0,0 km/h (0 Bft)
05.04.2014 08:20 10,4 C 10,0 C 93 % 1013,5 hPa 0,0 l/m 0 min 0 min 0,0 UV-I 58 W/m 0,0 km/h (0 Bft)
05.04.2014 08:22 10,4 C 10,0 C 93 % 1013,6 hPa 0,0 l/m 0 min 0 min 0,0 UV-I 60 W/m 0,0 km/h (0 Bft)
05.04.2014 08:24 10,4 C 10,0 C 93 % 1013,6 hPa 0,0 l/m 0 min 0 min 0,0 UV-I 62 W/m 0,0 km/h (0 Bft)
05.04.2014 08:26 10,5 C 10,0 C 93 % 1013,7 hPa 0,0 l/m 0 min 0 min 0,0 UV-I 62 W/m 0,0 km/h (0 Bft)
05.04.2014 08:28 10,5 C 10,0 C 93 % 1013,7 hPa 0,0 l/m 0 min 0 min 0,0 UV-I 63 W/m 0,0 km/h (0 Bft)
05.04.2014 08:30 10,5 C 10,0 C 93 % 1013,7 hPa 0,0 l/m 0 min 0 min 0,0 UV-I 65 W/m 0,0 km/h (0 Bft)
05.04.2014 08:32 10,5 C 10,0 C 93 % 1013,7 hPa 0,0 l/m 0 min 0 min 0,0 UV-I 65 W/m 0,0 km/h (0 Bft)
05.04.2014 08:34 10,5 C 10,0 C 93 % 1013,7 hPa 0,0 l/m 0 min 0 min 0,0 UV-I 67 W/m 0,0 km/h (0 Bft)
05.04.2014 08:36 10,6 C 10,0 C 93 % 1013,7 hPa 0,0 l/m 0 min 0 min 0,0 UV-I 67 W/m 0,0 km/h (0 Bft)
05.04.2014 08:38 10,6 C 10,0 C 93 % 1013,7 hPa 0,0 l/m 0 min 0 min 0,0 UV-I 67 W/m 0,0 km/h (0 Bft)
05.04.2014 08:40 10,6 C 10,0 C 93 % 1013,8 hPa 0,0 l/m 0 min 0 min 0,0 UV-I 69 W/m 0,0 km/h (0 Bft)
05.04.2014 08:42 10,6 C 10,0 C 93 % 1013,8 hPa 0,0 l/m 0 min 0 min 0,0 UV-I 69 W/m 0,0 km/h (0 Bft)
05.04.2014 08:44 10,7 C 10,6 C 92 % 1013,8 hPa 0,0 l/m 0 min 0 min 0,0 UV-I 70 W/m 0,0 km/h (0 Bft)
05.04.2014 08:46 10,7 C 10,6 C 93 % 1013,8 hPa 0,0 l/m 0 min 0 min 0,0 UV-I 72 W/m 0,0 km/h (0 Bft)
05.04.2014 08:48 10,7 C 10,6 C 92 % 1013,8 hPa 0,0 l/m 0 min 0 min 0,0 UV-I 74 W/m 5,1 km/h (1 Bft)
05.04.2014 08:50 10,7 C 10,6 C 92 % 1013,9 hPa 0,0 l/m 0 min 0 min 0,0 UV-I 74 W/m 0,0 km/h (0 Bft)
05.04.2014 08:52 10,7 C 10,6 C 92 % 1013,9 hPa 0,0 l/m 0 min 0 min 0,0 UV-I 76 W/m 0,0 km/h (0 Bft)
05.04.2014 08:54 10,8 C 10,6 C 92 % 1013,9 hPa 0,0 l/m 0 min 0 min 0,0 UV-I 79 W/m 0,0 km/h (0 Bft)
05.04.2014 08:56 10,9 C 10,6 C 92 % 1014,0 hPa 0,0 l/m 0 min 0 min 0,0 UV-I 83 W/m 0,0 km/h (0 Bft)
05.04.2014 08:58 10,9 C 10,6 C 92 % 1014,0 hPa 0,0 l/m 0 min 0 min 0,0 UV-I 86 W/m 0,0 km/h (0 Bft)
05.04.2014 09:00 10,9 C 10,6 C 92 % 1013,9 hPa 0,0 l/m 0 min 0 min 0,0 UV-I 93 W/m 0,0 km/h (0 Bft)
05.04.2014 09:02 10,9 C 10,6 C 92 % 1014,0 hPa 0,0 l/m 0 min 0 min 0,0 UV-I 97 W/m 0,0 km/h (0 Bft)
05.04.2014 09:04 10,9 C 10,6 C 92 % 1014,0 hPa 0,0 l/m 0 min 0 min 0,0 UV-I 100 W/m 0,0 km/h (0 Bft)
05.04.2014 09:06 11,0 C 10,6 C 92 % 1014,1 hPa 0,0 l/m 0 min 0 min 0,0 UV-I 105 W/m 0,0 km/h (0 Bft)
05.04.2014 09:08 11,1 C 10,6 C 92 % 1014,0 hPa 0,0 l/m 0 min 0 min 0,0 UV-I 109 W/m 0,0 km/h (0 Bft)
05.04.2014 09:10 11,1 C 11,1 C 91 % 1014,0 hPa 0,0 l/m 0 min 0 min 0,0 UV-I 113 W/m 5,1 km/h (1 Bft)
05.04.2014 09:12 11,1 C 11,1 C 91 % 1014,1 hPa 0,0 l/m 0 min 0 min 0,0 UV-I 114 W/m 5,1 km/h (1 Bft)
05.04.2014 09:14 11,1 C 11,1 C 91 % 1014,1 hPa 0,0 l/m 0 min 0 min 0,0 UV-I 118 W/m 0,0 km/h (0 Bft)
05.04.2014 09:16 11,2 C 11,1 C 91 % 1014,1 hPa 0,0 l/m 0 min 0 min 0,0 UV-I 121 W/m 0,0 km/h (0 Bft)
05.04.2014 09:18 11,2 C 11,1 C 91 % 1014,1 hPa 0,0 l/m 0 min 0 min 0,0 UV-I 128 W/m 0,0 km/h (0 Bft)
05.04.2014 09:20 11,2 C 11,1 C 90 % 1014,1 hPa 0,0 l/m 0 min 0 min 0,0 UV-I 132 W/m 5,1 km/h (1 Bft)
05.04.2014 09:22 11,2 C 11,1 C 90 % 1014,1 hPa 0,0 l/m 0 min 0 min 0,0 UV-I 135 W/m 0,0 km/h (0 Bft)
05.04.2014 09:24 11,3 C 11,1 C 90 % 1014,1 hPa 0,0 l/m 0 min 0 min 0,0 UV-I 141 W/m 0,0 km/h (0 Bft)
05.04.2014 09:26 11,4 C 11,1 C 90 % 1014,1 hPa 0,0 l/m 0 min 0 min 0,0 UV-I 141 W/m 0,0 km/h (0 Bft)
05.04.2014 09:28 11,4 C 11,7 C 90 % 1014,2 hPa 0,0 l/m 0 min 0 min 0,0 UV-I 141 W/m 5,1 km/h (1 Bft)
05.04.2014 09:30 11,4 C 11,7 C 90 % 1014,2 hPa 0,0 l/m 0 min 0 min 0,0 UV-I 142 W/m 0,0 km/h (0 Bft)
05.04.2014 09:32 11,4 C 11,7 C 89 % 1014,2 hPa 0,0 l/m 0 min 0 min 0,0 UV-I 148 W/m 5,1 km/h (1 Bft)
05.04.2014 09:34 11,4 C 11,7 C 89 % 1014,2 hPa 0,0 l/m 0 min 0 min 0,0 UV-I 155 W/m 0,0 km/h (0 Bft)
05.04.2014 09:36 11,5 C 11,7 C 89 % 1014,2 hPa 0,0 l/m 0 min 0 min 0,0 UV-I 163 W/m 0,0 km/h (0 Bft)
05.04.2014 09:38 11,6 C 11,7 C 89 % 1014,2 hPa 0,0 l/m 0 min 0 min 0,0 UV-I 169 W/m 0,0 km/h (0 Bft)
05.04.2014 09:40 11,6 C 11,7 C 89 % 1014,2 hPa 0,0 l/m 0 min 0 min 0,0 UV-I 169 W/m 0,0 km/h (0 Bft)
05.04.2014 09:42 11,6 C 11,7 C 89 % 1014,2 hPa 0,0 l/m 0 min 0 min 0,0 UV-I 169 W/m 2,6 km/h (1 Bft)
05.04.2014 09:44 11,7 C 11,7 C 89 % 1014,3 hPa 0,0 l/m 0 min 0 min 0,0 UV-I 169 W/m 0,0 km/h (0 Bft)
05.04.2014 09:46 11,7 C 12,2 C 89 % 1014,2 hPa 0,0 l/m 0 min 0 min 0,0 UV-I 167 W/m 0,0 km/h (0 Bft)
05.04.2014 09:48 11,7 C 12,2 C 89 % 1014,2 hPa 0,0 l/m 0 min 0 min 0,0 UV-I 167 W/m 0,0 km/h (0 Bft)
05.04.2014 09:50 11,9 C 12,2 C 89 % 1014,3 hPa 0,0 l/m 0 min 0 min 0,0 UV-I 167 W/m 0,0 km/h (0 Bft)
05.04.2014 09:52 11,9 C 12,2 C 89 % 1014,3 hPa 0,0 l/m 0 min 0 min 0,0 UV-I 165 W/m 0,0 km/h (0 Bft)
05.04.2014 09:54 12,1 C 12,2 C 89 % 1014,3 hPa 0,0 l/m 0 min 0 min 0,0 UV-I 165 W/m 0,0 km/h (0 Bft)
05.04.2014 09:56 12,1 C 12,2 C 88 % 1014,4 hPa 0,0 l/m 0 min 0 min 0,0 UV-I 169 W/m 0,0 km/h (0 Bft)
05.04.2014 09:58 12,1 C 12,2 C 88 % 1014,4 hPa 0,0 l/m 0 min 0 min 0,0 UV-I 167 W/m 0,0 km/h (0 Bft)
05.04.2014 10:00 12,1 C 12,2 C 88 % 1014,3 hPa 0,0 l/m 0 min 0 min 0,0 UV-I 163 W/m 0,0 km/h (0 Bft)
05.04.2014 10:02 12,1 C 12,2 C 88 % 1014,4 hPa 0,0 l/m 0 min 0 min 0,0 UV-I 165 W/m 0,0 km/h (0 Bft)
05.04.2014 10:04 12,2 C 12,2 C 88 % 1014,4 hPa 0,0 l/m 0 min 0 min 0,0 UV-I 172 W/m 0,0 km/h (0 Bft)
05.04.2014 10:06 12,2 C 12,2 C 87 % 1014,5 hPa 0,0 l/m 0 min 0 min 0,0 UV-I 179 W/m 2,6 km/h (1 Bft)
05.04.2014 10:08 12,2 C 12,2 C 87 % 1014,4 hPa 0,0 l/m 0 min 0 min 0,0 UV-I 185 W/m 0,0 km/h (0 Bft)
05.04.2014 10:10 12,2 C 12,2 C 87 % 1014,4 hPa 0,0 l/m 0 min 0 min 0,0 UV-I 195 W/m 2,6 km/h (1 Bft)
05.04.2014 10:12 12,1 C 12,2 C 87 % 1014,4 hPa 0,0 l/m 0 min 0 min 0,0 UV-I 199 W/m 2,6 km/h (1 Bft)
05.04.2014 10:14 12,2 C 12,2 C 87 % 1014,4 hPa 0,0 l/m 0 min 0 min 0,0 UV-I 200 W/m 0,0 km/h (0 Bft)
05.04.2014 10:16 12,3 C 12,8 C 87 % 1014,5 hPa 0,0 l/m 0 min 0 min 0,0 UV-I 204 W/m 0,0 km/h (0 Bft)
05.04.2014 10:18 12,3 C 12,8 C 87 % 1014,6 hPa 0,0 l/m 0 min 0 min 0,0 UV-I 207 W/m 0,0 km/h (0 Bft)
05.04.2014 10:20 12,4 C 12,8 C 87 % 1014,5 hPa 0,0 l/m 0 min 0 min 0,0 UV-I 214 W/m 0,0 km/h (0 Bft)
05.04.2014 10:22 12,5 C 12,8 C 87 % 1014,5 hPa 0,0 l/m 0 min 0 min 0,0 UV-I 237 W/m 0,0 km/h (0 Bft)
05.04.2014 10:24 12,6 C 12,8 C 86 % 1014,5 hPa 0,0 l/m 0 min 0 min 0,0 UV-I 255 W/m 0,0 km/h (0 Bft)
05.04.2014 10:26 12,7 C 12,8 C 86 % 1014,5 hPa 0,0 l/m 0 min 0 min 0,0 UV-I 251 W/m 0,0 km/h (0 Bft)
05.04.2014 10:28 12,8 C 13,3 C 86 % 1014,4 hPa 0,0 l/m 0 min 0 min 0,0 UV-I 251 W/m 0,0 km/h (0 Bft)
05.04.2014 10:30 12,9 C 13,3 C 86 % 1014,5 hPa 0,0 l/m 0 min 0 min 0,0 UV-I 244 W/m 0,0 km/h (0 Bft)
05.04.2014 10:32 12,9 C 13,3 C 85 % 1014,6 hPa 0,0 l/m 0 min 0 min 0,0 UV-I 239 W/m 0,0 km/h (0 Bft)
05.04.2014 10:34 12,9 C 13,3 C 85 % 1014,5 hPa 0,0 l/m 0 min 0 min 0,0 UV-I 241 W/m 0,0 km/h (0 Bft)
05.04.2014 10:36 12,9 C 13,3 C 85 % 1014,6 hPa 0,0 l/m 0 min 0 min 0,0 UV-I 243 W/m 0,0 km/h (0 Bft)
05.04.2014 10:38 12,9 C 13,3 C 86 % 1014,5 hPa 0,0 l/m 0 min 0 min 0,0 UV-I 241 W/m 2,6 km/h (1 Bft)
05.04.2014 10:40 12,8 C 13,3 C 85 % 1014,6 hPa 0,0 l/m 0 min 0 min 0,0 UV-I 239 W/m 0,0 km/h (0 Bft)
05.04.2014 10:42 12,9 C 13,3 C 85 % 1014,6 hPa 0,0 l/m 0 min 0 min 0,0 UV-I 248 W/m 0,0 km/h (0 Bft)
05.04.2014 10:44 12,9 C 13,3 C 85 % 1014,6 hPa 0,0 l/m 0 min 0 min 0,0 UV-I 265 W/m 0,0 km/h (0 Bft)
05.04.2014 10:46 13,0 C 13,9 C 85 % 1014,7 hPa 0,0 l/m 0 min 0 min 0,0 UV-I 295 W/m 0,0 km/h (0 Bft)
05.04.2014 10:48 13,1 C 13,9 C 84 % 1014,6 hPa 0,0 l/m 2 min 0 min 0,0 UV-I 323 W/m 0,0 km/h (0 Bft)
05.04.2014 10:50 13,1 C 13,9 C 84 % 1014,6 hPa 0,0 l/m 2 min 0 min 0,0 UV-I 316 W/m 0,0 km/h (0 Bft)
05.04.2014 10:52 13,2 C 13,9 C 84 % 1014,6 hPa 0,0 l/m 0 min 0 min 0,0 UV-I 287 W/m 0,0 km/h (0 Bft)
05.04.2014 10:54 13,2 C 13,9 C 84 % 1014,7 hPa 0,0 l/m 0 min 0 min 0,0 UV-I 274 W/m 2,6 km/h (1 Bft)
05.04.2014 10:56 13,3 C 13,9 C 84 % 1014,7 hPa 0,0 l/m 0 min 0 min 0,0 UV-I 260 W/m 0,0 km/h (0 Bft)
05.04.2014 10:58 13,3 C 13,9 C 84 % 1014,7 hPa 0,0 l/m 0 min 0 min 0,0 UV-I 250 W/m 0,0 km/h (0 Bft)
05.04.2014 11:00 13,3 C 13,9 C 84 % 1014,7 hPa 0,0 l/m 0 min 0 min 0,0 UV-I 248 W/m 0,0 km/h (0 Bft)
05.04.2014 11:02 13,3 C 13,9 C 84 % 1014,7 hPa 0,0 l/m 0 min 0 min 0,0 UV-I 253 W/m 0,0 km/h (0 Bft)
05.04.2014 11:04 13,4 C 13,9 C 84 % 1014,8 hPa 0,0 l/m 0 min 0 min 0,0 UV-I 260 W/m 2,6 km/h (1 Bft)
05.04.2014 11:06 13,4 C 13,9 C 83 % 1014,7 hPa 0,0 l/m 0 min 0 min 0,0 UV-I 267 W/m 5,1 km/h (1 Bft)
05.04.2014 11:08 13,4 C 13,9 C 84 % 1014,7 hPa 0,0 l/m 0 min 0 min 0,0 UV-I 279 W/m 0,0 km/h (0 Bft)
05.04.2014 11:10 13,4 C 13,9 C 83 % 1014,8 hPa 0,0 l/m 0 min 0 min 0,0 UV-I 283 W/m 10,3 km/h (2 Bft)
05.04.2014 11:12 13,6 C 14,4 C 84 % 1014,7 hPa 0,0 l/m 0 min 0 min 0,0 UV-I 283 W/m 0,0 km/h (0 Bft)
05.04.2014 11:14 13,7 C 14,4 C 83 % 1014,7 hPa 0,0 l/m 0 min 0 min 0,0 UV-I 288 W/m 0,0 km/h (0 Bft)
05.04.2014 11:16 13,8 C 14,4 C 83 % 1014,7 hPa 0,0 l/m 0 min 0 min 0,0 UV-I 297 W/m 0,0 km/h (0 Bft)
05.04.2014 11:18 13,9 C 14,4 C 82 % 1014,8 hPa 0,0 l/m 0 min 0 min 0,5 UV-I 301 W/m 7,7 km/h (2 Bft)
05.04.2014 11:20 14,0 C 14,4 C 82 % 1014,8 hPa 0,0 l/m 0 min 0 min 0,5 UV-I 316 W/m 0,0 km/h (0 Bft)
05.04.2014 11:22 14,1 C 14,4 C 82 % 1014,7 hPa 0,0 l/m 0 min 0 min 0,5 UV-I 325 W/m 10,3 km/h (2 Bft)
05.04.2014 11:24 14,2 C 14,4 C 81 % 1014,7 hPa 0,0 l/m 0 min 0 min 0,5 UV-I 315 W/m 0,0 km/h (0 Bft)
05.04.2014 11:26 14,2 C 15,0 C 82 % 1014,7 hPa 0,0 l/m 0 min 0 min 0,5 UV-I 308 W/m 0,0 km/h (0 Bft)
05.04.2014 11:28 14,2 C 15,0 C 82 % 1014,8 hPa 0,0 l/m 0 min 0 min 0,0 UV-I 292 W/m 0,0 km/h (0 Bft)
05.04.2014 11:30 14,2 C 15,0 C 82 % 1014,7 hPa 0,0 l/m 0 min 0 min 0,0 UV-I 279 W/m 0,0 km/h (0 Bft)
05.04.2014 11:32 14,2 C 15,0 C 81 % 1014,7 hPa 0,0 l/m 0 min 0 min 0,0 UV-I 272 W/m 0,0 km/h (0 Bft)
05.04.2014 11:34 14,2 C 15,0 C 81 % 1014,8 hPa 0,0 l/m 0 min 0 min 0,0 UV-I 267 W/m 0,0 km/h (0 Bft)
05.04.2014 11:36 14,3 C 15,0 C 82 % 1014,8 hPa 0,0 l/m 0 min 0 min 0,0 UV-I 262 W/m 0,0 km/h (0 Bft)
05.04.2014 11:38 14,2 C 15,0 C 81 % 1014,8 hPa 0,0 l/m 0 min 0 min 0,0 UV-I 253 W/m 2,6 km/h (1 Bft)
05.04.2014 11:40 14,2 C 15,0 C 80 % 1014,8 hPa 0,0 l/m 0 min 0 min 0,0 UV-I 246 W/m 0,0 km/h (0 Bft)
05.04.2014 11:42 14,2 C 15,0 C 81 % 1014,8 hPa 0,0 l/m 0 min 0 min 0,0 UV-I 241 W/m 0,0 km/h (0 Bft)
05.04.2014 11:44 14,2 C 15,0 C 81 % 1014,9 hPa 0,0 l/m 0 min 0 min 0,0 UV-I 230 W/m 0,0 km/h (0 Bft)
05.04.2014 11:46 14,2 C 14,4 C 81 % 1014,9 hPa 0,0 l/m 0 min 0 min 0,0 UV-I 227 W/m 0,0 km/h (0 Bft)
05.04.2014 11:48 14,3 C 15,0 C 81 % 1014,9 hPa 0,0 l/m 0 min 0 min 0,0 UV-I 230 W/m 0,0 km/h (0 Bft)
05.04.2014 11:50 14,2 C 14,4 C 79 % 1014,9 hPa 0,0 l/m 0 min 0 min 0,0 UV-I 229 W/m 2,6 km/h (1 Bft)
05.04.2014 11:52 14,2 C 14,4 C 81 % 1015,0 hPa 0,0 l/m 0 min 0 min 0,0 UV-I 223 W/m 0,0 km/h (0 Bft)
05.04.2014 11:54 14,2 C 14,4 C 80 % 1015,0 hPa 0,0 l/m 0 min 0 min 0,0 UV-I 214 W/m 0,0 km/h (0 Bft)
05.04.2014 11:56 14,2 C 14,4 C 80 % 1015,1 hPa 0,0 l/m 0 min 0 min 0,0 UV-I 197 W/m 0,0 km/h (0 Bft)
05.04.2014 11:58 14,2 C 14,4 C 80 % 1015,1 hPa 0,0 l/m 0 min 0 min 0,0 UV-I 190 W/m 0,0 km/h (0 Bft)
05.04.2014 12:00 14,2 C 14,4 C 80 % 1015,1 hPa 0,0 l/m 0 min 0 min 0,0 UV-I 181 W/m 0,0 km/h (0 Bft)
05.04.2014 12:02 14,2 C 14,4 C 80 % 1015,0 hPa 0,0 l/m 0 min 0 min 0,0 UV-I 162 W/m 0,0 km/h (0 Bft)
05.04.2014 12:04 14,2 C 14,4 C 80 % 1015,2 hPa 0,0 l/m 0 min 0 min 0,0 UV-I 149 W/m 0,0 km/h (0 Bft)
05.04.2014 12:06 14,2 C 13,9 C 80 % 1015,1 hPa 0,0 l/m 0 min 0 min 0,0 UV-I 139 W/m 0,0 km/h (0 Bft)
05.04.2014 12:08 14,2 C 13,9 C 80 % 1015,2 hPa 0,0 l/m 0 min 0 min 0,0 UV-I 118 W/m 0,0 km/h (0 Bft)
05.04.2014 12:10 14,2 C 13,9 C 81 % 1015,1 hPa 0,0 l/m 0 min 0 min 0,0 UV-I 111 W/m 0,0 km/h (0 Bft)
05.04.2014 12:12 14,3 C 13,9 C 81 % 1015,1 hPa 0,0 l/m 0 min 0 min 0,0 UV-I 111 W/m 7,7 km/h (2 Bft)
05.04.2014 12:14 14,2 C 13,9 C 79 % 1015,1 hPa 0,0 l/m 0 min 0 min 0,0 UV-I 120 W/m 2,6 km/h (1 Bft)
05.04.2014 12:16 14,2 C 13,9 C 79 % 1015,1 hPa 0,0 l/m 0 min 0 min 0,0 UV-I 130 W/m 2,6 km/h (1 Bft)
05.04.2014 12:18 14,1 C 13,9 C 80 % 1015,1 hPa 0,0 l/m 0 min 0 min 0,0 UV-I 137 W/m 2,6 km/h (1 Bft)
05.04.2014 12:20 14,2 C 13,9 C 81 % 1015,1 hPa 0,0 l/m 0 min 0 min 0,0 UV-I 130 W/m 7,7 km/h (2 Bft)
05.04.2014 12:22 14,2 C 13,9 C 81 % 1015,1 hPa 0,0 l/m 0 min 0 min 0,0 UV-I 121 W/m 0,0 km/h (0 Bft)
05.04.2014 12:24 14,2 C 13,9 C 81 % 1015,1 hPa 0,0 l/m 0 min 0 min 0,0 UV-I 123 W/m 5,1 km/h (1 Bft)
05.04.2014 12:26 14,2 C 13,9 C 80 % 1015,2 hPa 0,0 l/m 0 min 0 min 0,0 UV-I 128 W/m 5,1 km/h (1 Bft)
05.04.2014 12:28 14,2 C 13,9 C 81 % 1015,2 hPa 0,0 l/m 0 min 0 min 0,0 UV-I 135 W/m 0,0 km/h (0 Bft)
05.04.2014 12:30 14,2 C 13,9 C 80 % 1015,2 hPa 0,0 l/m 0 min 0 min 0,0 UV-I 149 W/m 2,6 km/h (1 Bft)
05.04.2014 12:32 14,2 C 13,9 C 80 % 1015,2 hPa 0,0 l/m 0 min 0 min 0,0 UV-I 156 W/m 5,1 km/h (1 Bft)
05.04.2014 12:34 14,2 C 13,9 C 80 % 1015,2 hPa 0,0 l/m 0 min 0 min 0,0 UV-I 155 W/m 0,0 km/h (0 Bft)
05.04.2014 12:36 14,2 C 13,9 C 79 % 1015,2 hPa 0,0 l/m 0 min 0 min 0,0 UV-I 142 W/m 2,6 km/h (1 Bft)
05.04.2014 12:38 14,2 C 13,9 C 79 % 1015,2 hPa 0,0 l/m 0 min 0 min 0,0 UV-I 142 W/m 2,6 km/h (1 Bft)
05.04.2014 12:40 14,2 C 13,9 C 80 % 1015,2 hPa 0,0 l/m 0 min 0 min 0,0 UV-I 153 W/m 0,0 km/h (0 Bft)
05.04.2014 12:42 14,2 C 13,9 C 80 % 1015,2 hPa 0,0 l/m 0 min 0 min 0,0 UV-I 183 W/m 15,4 km/h (3 Bft)
05.04.2014 12:44 14,2 C 13,9 C 80 % 1015,2 hPa 0,0 l/m 0 min 0 min 0,0 UV-I 200 W/m 12,9 km/h (3 Bft)
05.04.2014 12:46 14,2 C 13,9 C 80 % 1015,1 hPa 0,0 l/m 0 min 0 min 0,0 UV-I 223 W/m 10,3 km/h (2 Bft)
05.04.2014 12:48 14,2 C 13,9 C 79 % 1015,1 hPa 0,0 l/m 0 min 0 min 0,0 UV-I 260 W/m 10,3 km/h (2 Bft)
05.04.2014 12:50 14,2 C 14,4 C 80 % 1015,1 hPa 0,0 l/m 0 min 0 min 0,0 UV-I 267 W/m 0,0 km/h (0 Bft)
05.04.2014 12:52 14,3 C 14,4 C 79 % 1015,2 hPa 0,0 l/m 0 min 0 min 0,0 UV-I 258 W/m 7,7 km/h (2 Bft)
05.04.2014 12:54 14,2 C 14,4 C 79 % 1015,2 hPa 0,0 l/m 0 min 0 min 0,0 UV-I 230 W/m 10,3 km/h (2 Bft)
05.04.2014 12:56 14,3 C 14,4 C 79 % 1015,2 hPa 0,0 l/m 0 min 0 min 0,0 UV-I 213 W/m 5,1 km/h (1 Bft)
05.04.2014 12:58 14,4 C 14,4 C 79 % 1015,2 hPa 0,0 l/m 0 min 0 min 0,0 UV-I 207 W/m 5,1 km/h (1 Bft)
05.04.2014 13:00 14,4 C 14,4 C 79 % 1015,2 hPa 0,0 l/m 0 min 0 min 0,0 UV-I 211 W/m 5,1 km/h (1 Bft)
05.04.2014 13:02 14,5 C 14,4 C 79 % 1015,2 hPa 0,0 l/m 0 min 0 min 0,0 UV-I 218 W/m 10,3 km/h (2 Bft)
05.04.2014 13:04 14,4 C 14,4 C 78 % 1015,2 hPa 0,0 l/m 0 min 0 min 0,0 UV-I 221 W/m 7,7 km/h (2 Bft)
05.04.2014 13:06 14,4 C 14,4 C 78 % 1015,2 hPa 0,0 l/m 0 min 0 min 0,0 UV-I 214 W/m 0,0 km/h (0 Bft)
05.04.2014 13:08 14,4 C 14,4 C 78 % 1015,3 hPa 0,0 l/m 0 min 0 min 0,0 UV-I 207 W/m 7,7 km/h (2 Bft)
05.04.2014 13:10 14,4 C 14,4 C 78 % 1015,3 hPa 0,0 l/m 0 min 0 min 0,0 UV-I 207 W/m 10,3 km/h (2 Bft)
05.04.2014 13:12 14,4 C 14,4 C 78 % 1015,3 hPa 0,0 l/m 0 min 0 min 0,0 UV-I 214 W/m 5,1 km/h (1 Bft)
05.04.2014 13:14 14,5 C 14,4 C 79 % 1015,3 hPa 0,0 l/m 0 min 0 min 0,0 UV-I 218 W/m 0,0 km/h (0 Bft)
05.04.2014 13:16 14,5 C 14,4 C 78 % 1015,3 hPa 0,0 l/m 0 min 0 min 0,0 UV-I 229 W/m 0,0 km/h (0 Bft)
05.04.2014 13:18 14,5 C 14,4 C 78 % 1015,2 hPa 0,0 l/m 0 min 0 min 0,5 UV-I 248 W/m 0,0 km/h (0 Bft)
05.04.2014 13:20 14,5 C 14,4 C 78 % 1015,3 hPa 0,0 l/m 0 min 0 min 0,5 UV-I 265 W/m 10,3 km/h (2 Bft)
05.04.2014 13:22 14,6 C 15,0 C 79 % 1015,3 hPa 0,0 l/m 0 min 0 min 0,7 UV-I 295 W/m 5,1 km/h (1 Bft)
05.04.2014 13:24 14,7 C 15,0 C 78 % 1015,3 hPa 0,0 l/m 0 min 0 min 0,8 UV-I 369 W/m 2,6 km/h (1 Bft)
05.04.2014 13:26 14,8 C 15,6 C 79 % 1015,3 hPa 0,0 l/m 0 min 0 min 0,9 UV-I 385 W/m 0,0 km/h (0 Bft)
05.04.2014 13:28 15,0 C 15,6 C 78 % 1015,3 hPa 0,0 l/m 0 min 0 min 0,8 UV-I 367 W/m 5,1 km/h (1 Bft)
05.04.2014 13:30 15,0 C 15,6 C 76 % 1015,3 hPa 0,0 l/m 0 min 0 min 0,6 UV-I 308 W/m 5,1 km/h (1 Bft)
05.04.2014 13:32 15,0 C 15,6 C 77 % 1015,3 hPa 0,0 l/m 0 min 0 min 0,0 UV-I 265 W/m 12,9 km/h (3 Bft)
05.04.2014 13:34 15,1 C 15,6 C 77 % 1015,3 hPa 0,0 l/m 0 min 0 min 0,0 UV-I 216 W/m 2,6 km/h (1 Bft)
05.04.2014 13:36 15,1 C 15,6 C 78 % 1015,4 hPa 0,0 l/m 0 min 0 min 0,0 UV-I 188 W/m 7,7 km/h (2 Bft)
05.04.2014 13:38 15,1 C 15,0 C 78 % 1015,4 hPa 0,0 l/m 0 min 0 min 0,0 UV-I 183 W/m 2,6 km/h (1 Bft)
05.04.2014 13:40 15,0 C 15,0 C 77 % 1015,4 hPa 0,0 l/m 0 min 0 min 0,0 UV-I 192 W/m 10,3 km/h (2 Bft)
05.04.2014 13:42 14,9 C 15,0 C 78 % 1015,4 hPa 0,0 l/m 0 min 0 min 0,0 UV-I 202 W/m 2,6 km/h (1 Bft)
05.04.2014 13:44 15,0 C 15,0 C 78 % 1015,3 hPa 0,0 l/m 0 min 0 min 0,0 UV-I 223 W/m 2,6 km/h (1 Bft)
05.04.2014 13:46 15,0 C 15,0 C 78 % 1015,4 hPa 0,0 l/m 0 min 0 min 0,0 UV-I 251 W/m 0,0 km/h (0 Bft)
05.04.2014 13:48 15,1 C 15,0 C 78 % 1015,4 hPa 0,0 l/m 0 min 0 min 0,0 UV-I 236 W/m 0,0 km/h (0 Bft)
05.04.2014 13:50 15,1 C 15,0 C 78 % 1015,3 hPa 0,0 l/m 0 min 0 min 0,0 UV-I 213 W/m 0,0 km/h (0 Bft)
05.04.2014 13:52 15,1 C 15,0 C 78 % 1015,4 hPa 0,0 l/m 0 min 0 min 0,0 UV-I 197 W/m 5,1 km/h (1 Bft)
05.04.2014 13:54 14,9 C 15,0 C 77 % 1015,4 hPa 0,0 l/m 0 min 0 min 0,0 UV-I 207 W/m 7,7 km/h (2 Bft)
05.04.2014 13:56 15,0 C 15,0 C 78 % 1015,4 hPa 0,0 l/m 0 min 0 min 0,0 UV-I 218 W/m 7,7 km/h (2 Bft)
05.04.2014 13:58 15,0 C 15,0 C 79 % 1015,4 hPa 0,0 l/m 0 min 0 min 0,0 UV-I 236 W/m 7,7 km/h (2 Bft)
05.04.2014 14:00 15,0 C 15,0 C 77 % 1015,4 hPa 0,0 l/m 0 min 0 min 0,6 UV-I 272 W/m 10,3 km/h (2 Bft)
05.04.2014 14:02 15,1 C 15,6 C 77 % 1015,4 hPa 0,0 l/m 0 min 0 min 0,7 UV-I 315 W/m 10,3 km/h (2 Bft)
05.04.2014 14:06 15,2 C 15,6 C 76 % 1015,4 hPa 0,0 l/m 0 min 0 min 0,8 UV-I 318 W/m 12,9 km/h (3 Bft)
05.04.2014 14:08 15,3 C 15,6 C 78 % 1015,4 hPa 0,0 l/m 0 min 0 min 0,8 UV-I 323 W/m 0,0 km/h (0 Bft)
05.04.2014 14:10 15,3 C 16,1 C 76 % 1015,4 hPa 0,0 l/m 0 min 0 min 0,7 UV-I 274 W/m 10,3 km/h (2 Bft)
05.04.2014 14:12 15,2 C 15,6 C 75 % 1015,4 hPa 0,0 l/m 0 min 0 min 0,0 UV-I 236 W/m 7,7 km/h (2 Bft)
05.04.2014 14:14 15,1 C 15,6 C 76 % 1015,4 hPa 0,0 l/m 0 min 0 min 0,0 UV-I 204 W/m 0,0 km/h (0 Bft)
05.04.2014 14:16 15,2 C 15,0 C 77 % 1015,4 hPa 0,0 l/m 0 min 0 min 0,0 UV-I 179 W/m 2,6 km/h (1 Bft)
05.04.2014 14:18 15,2 C 15,0 C 77 % 1015,4 hPa 0,0 l/m 0 min 0 min 0,0 UV-I 188 W/m 0,0 km/h (0 Bft)
05.04.2014 14:20 15,2 C 15,0 C 76 % 1015,3 hPa 0,0 l/m 0 min 0 min 0,5 UV-I 225 W/m 0,0 km/h (0 Bft)
05.04.2014 14:22 15,2 C 15,6 C 77 % 1015,3 hPa 0,0 l/m 0 min 0 min 0,8 UV-I 316 W/m 0,0 km/h (0 Bft)
05.04.2014 14:24 15,2 C 16,1 C 77 % 1015,4 hPa 0,0 l/m 2 min 0 min 1,2 UV-I 473 W/m 2,6 km/h (1 Bft)
05.04.2014 14:26 15,2 C 16,1 C 76 % 1015,4 hPa 0,0 l/m 0 min 0 min 1,0 UV-I 359 W/m 7,7 km/h (2 Bft)
05.04.2014 14:28 15,3 C 16,1 C 77 % 1015,4 hPa 0,0 l/m 0 min 0 min 0,9 UV-I 325 W/m 2,6 km/h (1 Bft)
05.04.2014 14:30 15,4 C 16,7 C 76 % 1015,4 hPa 0,0 l/m 0 min 0 min 0,9 UV-I 316 W/m 0,0 km/h (0 Bft)
05.04.2014 14:32 15,6 C 16,1 C 75 % 1015,4 hPa 0,0 l/m 0 min 0 min 0,9 UV-I 301 W/m 7,7 km/h (2 Bft)
05.04.2014 14:34 15,6 C 16,1 C 75 % 1015,4 hPa 0,0 l/m 0 min 0 min 0,9 UV-I 297 W/m 7,7 km/h (2 Bft)
05.04.2014 14:36 15,6 C 16,7 C 75 % 1015,4 hPa 0,0 l/m 0 min 0 min 0,9 UV-I 304 W/m 7,7 km/h (2 Bft)
05.04.2014 14:38 15,7 C 16,7 C 74 % 1015,3 hPa 0,0 l/m 0 min 0 min 0,9 UV-I 311 W/m 0,0 km/h (0 Bft)
05.04.2014 14:40 15,6 C 16,7 C 74 % 1015,3 hPa 0,0 l/m 0 min 0 min 0,9 UV-I 315 W/m 7,7 km/h (2 Bft)
05.04.2014 14:42 15,6 C 16,7 C 76 % 1015,4 hPa 0,0 l/m 0 min 0 min 0,8 UV-I 302 W/m 0,0 km/h (0 Bft)
05.04.2014 14:44 15,6 C 16,7 C 74 % 1015,5 hPa 0,0 l/m 0 min 0 min 0,8 UV-I 299 W/m 0,0 km/h (0 Bft)
05.04.2014 14:46 15,6 C 16,7 C 75 % 1015,4 hPa 0,0 l/m 0 min 0 min 0,7 UV-I 292 W/m 7,7 km/h (2 Bft)
05.04.2014 14:48 15,4 C 16,1 C 74 % 1015,4 hPa 0,0 l/m 0 min 0 min 0,6 UV-I 253 W/m 7,7 km/h (2 Bft)
05.04.2014 14:50 15,4 C 16,1 C 75 % 1015,5 hPa 0,0 l/m 0 min 0 min 0,0 UV-I 221 W/m 5,1 km/h (1 Bft)
05.04.2014 14:52 15,4 C 16,1 C 75 % 1015,4 hPa 0,0 l/m 0 min 0 min 0,0 UV-I 195 W/m 0,0 km/h (0 Bft)
05.04.2014 14:54 15,4 C 15,6 C 76 % 1015,4 hPa 0,0 l/m 0 min 0 min 0,0 UV-I 192 W/m 5,1 km/h (1 Bft)
05.04.2014 14:56 15,3 C 15,6 C 75 % 1015,4 hPa 0,0 l/m 0 min 0 min 0,0 UV-I 192 W/m 2,6 km/h (1 Bft)
05.04.2014 14:58 15,3 C 15,0 C 75 % 1015,4 hPa 0,0 l/m 0 min 0 min 0,0 UV-I 179 W/m 0,0 km/h (0 Bft)
05.04.2014 15:00 15,2 C 15,0 C 75 % 1015,4 hPa 0,0 l/m 0 min 0 min 0,0 UV-I 169 W/m 2,6 km/h (1 Bft)
05.04.2014 15:02 15,1 C 15,0 C 75 % 1015,5 hPa 0,0 l/m 0 min 0 min 0,0 UV-I 160 W/m 7,7 km/h (2 Bft)
05.04.2014 15:04 15,1 C 15,0 C 76 % 1015,4 hPa 0,0 l/m 0 min 0 min 0,0 UV-I 142 W/m 7,7 km/h (2 Bft)
05.04.2014 15:06 15,1 C 15,0 C 76 % 1015,5 hPa 0,0 l/m 0 min 0 min 0,0 UV-I 137 W/m 2,6 km/h (1 Bft)
05.04.2014 15:08 15,1 C 15,0 C 76 % 1015,5 hPa 0,0 l/m 0 min 0 min 0,0 UV-I 155 W/m 0,0 km/h (0 Bft)
05.04.2014 15:10 15,0 C 15,0 C 76 % 1015,4 hPa 0,0 l/m 0 min 0 min 0,0 UV-I 169 W/m 0,0 km/h (0 Bft)
05.04.2014 15:12 15,1 C 15,0 C 76 % 1015,4 hPa 0,0 l/m 0 min 0 min 0,0 UV-I 183 W/m 0,0 km/h (0 Bft)
05.04.2014 15:14 15,2 C 15,0 C 76 % 1015,4 hPa 0,0 l/m 0 min 0 min 0,0 UV-I 195 W/m 2,6 km/h (1 Bft)
05.04.2014 15:16 15,1 C 15,6 C 76 % 1015,4 hPa 0,0 l/m 0 min 0 min 0,0 UV-I 216 W/m 0,0 km/h (0 Bft)
05.04.2014 15:18 15,1 C 15,6 C 76 % 1015,5 hPa 0,0 l/m 0 min 0 min 0,0 UV-I 225 W/m 0,0 km/h (0 Bft)
05.04.2014 15:20 15,1 C 15,6 C 76 % 1015,5 hPa 0,0 l/m 0 min 0 min 0,0 UV-I 216 W/m 7,7 km/h (2 Bft)
05.04.2014 15:22 15,1 C 15,0 C 76 % 1015,5 hPa 0,0 l/m 0 min 0 min 0,0 UV-I 211 W/m 7,7 km/h (2 Bft)
05.04.2014 15:24 15,1 C 15,0 C 76 % 1015,4 hPa 0,0 l/m 0 min 0 min 0,0 UV-I 214 W/m 7,7 km/h (2 Bft)
05.04.2014 15:26 15,2 C 15,6 C 77 % 1015,4 hPa 0,0 l/m 0 min 0 min 0,0 UV-I 234 W/m 2,6 km/h (1 Bft)
05.04.2014 15:28 15,2 C 15,6 C 76 % 1015,4 hPa 0,0 l/m 0 min 0 min 0,5 UV-I 265 W/m 5,1 km/h (1 Bft)
05.04.2014 15:30 15,2 C 15,6 C 75 % 1015,4 hPa 0,0 l/m 0 min 0 min 0,5 UV-I 283 W/m 7,7 km/h (2 Bft)
05.04.2014 15:32 15,3 C 16,1 C 75 % 1015,4 hPa 0,0 l/m 0 min 0 min 0,5 UV-I 274 W/m 12,9 km/h (3 Bft)
05.04.2014 15:34 15,3 C 16,1 C 75 % 1015,4 hPa 0,0 l/m 0 min 0 min 0,0 UV-I 236 W/m 0,0 km/h (0 Bft)
05.04.2014 15:36 15,5 C 16,1 C 76 % 1015,4 hPa 0,0 l/m 0 min 0 min 0,0 UV-I 229 W/m 0,0 km/h (0 Bft)
05.04.2014 15:38 15,4 C 16,1 C 75 % 1015,4 hPa 0,0 l/m 0 min 0 min 0,5 UV-I 237 W/m 10,3 km/h (2 Bft)
05.04.2014 15:40 15,4 C 16,1 C 75 % 1015,4 hPa 0,0 l/m 0 min 0 min 0,0 UV-I 223 W/m 0,0 km/h (0 Bft)
05.04.2014 15:42 15,6 C 16,1 C 76 % 1015,4 hPa 0,0 l/m 0 min 0 min 0,5 UV-I 227 W/m 0,0 km/h (0 Bft)
05.04.2014 15:44 15,6 C 16,1 C 75 % 1015,4 hPa 0,0 l/m 0 min 0 min 0,5 UV-I 250 W/m 0,0 km/h (0 Bft)
05.04.2014 15:46 15,6 C 16,1 C 74 % 1015,4 hPa 0,0 l/m 0 min 0 min 0,6 UV-I 237 W/m 15,4 km/h (3 Bft)
05.04.2014 15:48 15,5 C 16,1 C 74 % 1015,4 hPa 0,0 l/m 0 min 0 min 0,6 UV-I 232 W/m 12,9 km/h (3 Bft)
05.04.2014 15:50 15,5 C 16,1 C 74 % 1015,4 hPa 0,0 l/m 0 min 0 min 0,6 UV-I 234 W/m 2,6 km/h (1 Bft)
05.04.2014 15:52 15,6 C 16,1 C 74 % 1015,4 hPa 0,0 l/m 0 min 0 min 0,8 UV-I 288 W/m 0,0 km/h (0 Bft)
05.04.2014 15:54 15,7 C 16,1 C 75 % 1015,4 hPa 0,0 l/m 2 min 0 min 1,1 UV-I 443 W/m 7,7 km/h (2 Bft)
05.04.2014 15:56 15,8 C 16,7 C 75 % 1015,5 hPa 0,0 l/m 2 min 0 min 1,0 UV-I 385 W/m 5,1 km/h (1 Bft)
05.04.2014 15:58 15,8 C 16,7 C 73 % 1015,4 hPa 0,0 l/m 2 min 0 min 1,0 UV-I 390 W/m 7,7 km/h (2 Bft)
05.04.2014 16:00 15,8 C 16,7 C 71 % 1015,4 hPa 0,0 l/m 2 min 0 min 1,0 UV-I 367 W/m 7,7 km/h (2 Bft)
05.04.2014 16:02 16,0 C 16,7 C 73 % 1015,5 hPa 0,0 l/m 2 min 0 min 0,9 UV-I 343 W/m 0,0 km/h (0 Bft)
05.04.2014 16:04 16,1 C 16,7 C 72 % 1015,5 hPa 0,0 l/m 2 min 0 min 1,0 UV-I 374 W/m 0,0 km/h (0 Bft)
05.04.2014 16:06 16,3 C 16,7 C 72 % 1015,4 hPa 0,0 l/m 2 min 0 min 1,0 UV-I 473 W/m 10,3 km/h (2 Bft)
05.04.2014 16:08 16,4 C 16,7 C 71 % 1015,4 hPa 0,0 l/m 2 min 0 min 1,2 UV-I 462 W/m 7,7 km/h (2 Bft)
05.04.2014 16:10 16,5 C 16,7 C 72 % 1015,4 hPa 0,0 l/m 2 min 0 min 1,2 UV-I 555 W/m 2,6 km/h (1 Bft)
05.04.2014 16:12 16,6 C 17,2 C 71 % 1015,4 hPa 0,0 l/m 2 min 0 min 1,3 UV-I 555 W/m 2,6 km/h (1 Bft)
05.04.2014 16:14 16,8 C 17,2 C 72 % 1015,3 hPa 0,0 l/m 2 min 0 min 0,9 UV-I 563 W/m 0,0 km/h (0 Bft)
05.04.2014 16:16 16,9 C 17,2 C 70 % 1015,3 hPa 0,0 l/m 0 min 0 min 0,9 UV-I 309 W/m 0,0 km/h (0 Bft)
05.04.2014 16:18 16,9 C 17,2 C 70 % 1015,3 hPa 0,0 l/m 2 min 0 min 1,0 UV-I 338 W/m 7,7 km/h (2 Bft)
05.04.2014 16:20 16,7 C 17,2 C 70 % 1015,3 hPa 0,0 l/m 2 min 0 min 0,8 UV-I 338 W/m 10,3 km/h (2 Bft)
05.04.2014 16:22 16,6 C 16,7 C 69 % 1015,3 hPa 0,0 l/m 2 min 0 min 0,8 UV-I 316 W/m 0,0 km/h (0 Bft)
05.04.2014 16:24 16,6 C 17,2 C 71 % 1015,3 hPa 0,0 l/m 2 min 0 min 0,8 UV-I 369 W/m 0,0 km/h (0 Bft)
05.04.2014 16:26 16,7 C 17,2 C 71 % 1015,3 hPa 0,0 l/m 0 min 0 min 0,7 UV-I 262 W/m 0,0 km/h (0 Bft)
05.04.2014 16:28 16,7 C 16,7 C 70 % 1015,3 hPa 0,0 l/m 0 min 0 min 0,6 UV-I 250 W/m 0,0 km/h (0 Bft)
05.04.2014 16:30 16,6 C 16,7 C 69 % 1015,3 hPa 0,0 l/m 0 min 0 min 0,6 UV-I 236 W/m 0,0 km/h (0 Bft)
05.04.2014 16:32 16,5 C 16,7 C 70 % 1015,3 hPa 0,0 l/m 0 min 0 min 0,8 UV-I 246 W/m 0,0 km/h (0 Bft)
05.04.2014 16:34 16,5 C 16,7 C 71 % 1015,3 hPa 0,0 l/m 0 min 0 min 0,6 UV-I 227 W/m 0,0 km/h (0 Bft)
05.04.2014 16:36 16,5 C 16,7 C 70 % 1015,2 hPa 0,0 l/m 0 min 0 min 0,9 UV-I 227 W/m 0,0 km/h (0 Bft)
05.04.2014 16:38 16,6 C 16,7 C 70 % 1015,2 hPa 0,0 l/m 2 min 0 min 0,7 UV-I 436 W/m 0,0 km/h (0 Bft)
05.04.2014 16:40 16,5 C 16,7 C 69 % 1015,2 hPa 0,0 l/m 0 min 0 min 0,7 UV-I 243 W/m 15,4 km/h (3 Bft)
05.04.2014 16:42 16,4 C 16,7 C 69 % 1015,2 hPa 0,0 l/m 2 min 0 min 0,7 UV-I 302 W/m 0,0 km/h (0 Bft)
05.04.2014 16:44 16,4 C 16,7 C 70 % 1015,2 hPa 0,0 l/m 2 min 0 min 0,6 UV-I 367 W/m 0,0 km/h (0 Bft)
05.04.2014 16:46 16,6 C 16,1 C 70 % 1015,2 hPa 0,0 l/m 0 min 0 min 0,5 UV-I 192 W/m 0,0 km/h (0 Bft)
05.04.2014 16:48 16,4 C 16,1 C 68 % 1015,2 hPa 0,0 l/m 0 min 0 min 0,5 UV-I 160 W/m 10,3 km/h (2 Bft)
05.04.2014 16:50 16,2 C 15,6 C 69 % 1015,2 hPa 0,0 l/m 0 min 0 min 0,0 UV-I 148 W/m 2,6 km/h (1 Bft)
05.04.2014 16:52 16,1 C 15,6 C 70 % 1015,2 hPa 0,0 l/m 0 min 0 min 0,0 UV-I 137 W/m 0,0 km/h (0 Bft)
05.04.2014 16:54 16,0 C 15,6 C 71 % 1015,2 hPa 0,0 l/m 0 min 0 min 0,0 UV-I 137 W/m 2,6 km/h (1 Bft)
05.04.2014 16:56 15,9 C 15,0 C 70 % 1015,3 hPa 0,0 l/m 0 min 0 min 0,0 UV-I 155 W/m 10,3 km/h (2 Bft)
05.04.2014 16:58 15,8 C 15,0 C 71 % 1015,2 hPa 0,0 l/m 0 min 0 min 0,0 UV-I 223 W/m 2,6 km/h (1 Bft)
05.04.2014 17:00 15,8 C 15,0 C 72 % 1015,2 hPa 0,0 l/m 0 min 0 min 0,0 UV-I 144 W/m 0,0 km/h (0 Bft)
05.04.2014 17:02 15,8 C 15,0 C 71 % 1015,2 hPa 0,0 l/m 0 min 0 min 0,0 UV-I 118 W/m 7,7 km/h (2 Bft)
05.04.2014 17:04 15,8 C 15,0 C 72 % 1015,2 hPa 0,0 l/m 0 min 0 min 0,0 UV-I 111 W/m 0,0 km/h (0 Bft)
05.04.2014 17:06 15,8 C 15,0 C 71 % 1015,2 hPa 0,0 l/m 0 min 0 min 0,0 UV-I 113 W/m 0,0 km/h (0 Bft)
05.04.2014 17:08 15,7 C 15,0 C 72 % 1015,2 hPa 0,0 l/m 0 min 0 min 0,0 UV-I 116 W/m 0,0 km/h (0 Bft)
05.04.2014 17:10 15,8 C 15,0 C 73 % 1015,2 hPa 0,0 l/m 0 min 0 min 0,0 UV-I 125 W/m 0,0 km/h (0 Bft)
05.04.2014 17:12 15,8 C 15,0 C 71 % 1015,2 hPa 0,0 l/m 0 min 0 min 0,0 UV-I 149 W/m 0,0 km/h (0 Bft)
05.04.2014 17:14 15,8 C 15,0 C 72 % 1015,3 hPa 0,0 l/m 0 min 0 min 0,0 UV-I 171 W/m 0,0 km/h (0 Bft)
05.04.2014 17:16 15,8 C 15,0 C 72 % 1015,3 hPa 0,0 l/m 0 min 0 min 0,0 UV-I 181 W/m 5,1 km/h (1 Bft)
05.04.2014 17:18 15,9 C 15,6 C 72 % 1015,3 hPa 0,0 l/m 0 min 0 min 0,0 UV-I 211 W/m 5,1 km/h (1 Bft)
05.04.2014 17:20 16,0 C 15,6 C 73 % 1015,3 hPa 0,0 l/m 2 min 0 min 0,0 UV-I 371 W/m 0,0 km/h (0 Bft)
05.04.2014 17:22 16,2 C 16,1 C 72 % 1015,2 hPa 0,0 l/m 2 min 0 min 0,0 UV-I 278 W/m 0,0 km/h (0 Bft)
05.04.2014 17:24 16,2 C 16,1 C 70 % 1015,2 hPa 0,0 l/m 2 min 0 min 0,0 UV-I 236 W/m 0,0 km/h (0 Bft)
05.04.2014 17:26 16,3 C 16,1 C 71 % 1015,2 hPa 0,0 l/m 2 min 0 min 0,0 UV-I 323 W/m 0,0 km/h (0 Bft)
05.04.2014 17:28 16,5 C 16,1 C 71 % 1015,2 hPa 0,0 l/m 2 min 0 min 0,0 UV-I 394 W/m 0,0 km/h (0 Bft)
05.04.2014 17:30 16,8 C 16,1 C 71 % 1015,2 hPa 0,0 l/m 2 min 0 min 0,5 UV-I 418 W/m 0,0 km/h (0 Bft)
05.04.2014 17:32 17,1 C 16,7 C 71 % 1015,2 hPa 0,0 l/m 2 min 0 min 0,5 UV-I 429 W/m 0,0 km/h (0 Bft)
05.04.2014 17:34 17,2 C 16,7 C 68 % 1015,2 hPa 0,0 l/m 2 min 0 min 0,5 UV-I 403 W/m 0,0 km/h (0 Bft)
05.04.2014 17:36 17,2 C 16,7 C 68 % 1015,2 hPa 0,0 l/m 2 min 0 min 0,6 UV-I 406 W/m 0,0 km/h (0 Bft)
05.04.2014 17:38 17,1 C 16,7 C 68 % 1015,2 hPa 0,0 l/m 2 min 0 min 0,6 UV-I 410 W/m 0,0 km/h (0 Bft)
05.04.2014 17:40 17,2 C 16,7 C 69 % 1015,2 hPa 0,0 l/m 2 min 0 min 0,5 UV-I 322 W/m 0,0 km/h (0 Bft)
05.04.2014 17:42 17,3 C 16,7 C 68 % 1015,2 hPa 0,0 l/m 0 min 0 min 0,0 UV-I 181 W/m 10,3 km/h (2 Bft)
05.04.2014 17:44 17,1 C 16,7 C 66 % 1015,3 hPa 0,0 l/m 0 min 0 min 0,0 UV-I 162 W/m 2,6 km/h (1 Bft)
05.04.2014 17:46 16,9 C 16,1 C 66 % 1015,3 hPa 0,0 l/m 0 min 0 min 0,0 UV-I 146 W/m 7,7 km/h (2 Bft)
05.04.2014 17:48 16,7 C 15,6 C 66 % 1015,3 hPa 0,0 l/m 0 min 0 min 0,0 UV-I 139 W/m 0,0 km/h (0 Bft)
05.04.2014 17:50 16,6 C 15,6 C 68 % 1015,3 hPa 0,0 l/m 2 min 0 min 0,0 UV-I 271 W/m 0,0 km/h (0 Bft)
05.04.2014 17:52 16,6 C 15,6 C 68 % 1015,3 hPa 0,0 l/m 2 min 0 min 0,0 UV-I 274 W/m 2,6 km/h (1 Bft)
05.04.2014 17:54 16,7 C 15,6 C 68 % 1015,3 hPa 0,0 l/m 2 min 0 min 0,0 UV-I 244 W/m 0,0 km/h (0 Bft)
05.04.2014 17:56 16,8 C 15,6 C 68 % 1015,3 hPa 0,0 l/m 2 min 0 min 0,0 UV-I 262 W/m 0,0 km/h (0 Bft)
05.04.2014 17:58 16,9 C 15,6 C 68 % 1015,3 hPa 0,0 l/m 2 min 0 min 0,0 UV-I 216 W/m 0,0 km/h (0 Bft)
05.04.2014 18:00 17,0 C 15,6 C 68 % 1015,3 hPa 0,0 l/m 0 min 0 min 0,0 UV-I 137 W/m 2,6 km/h (1 Bft)
05.04.2014 18:02 17,0 C 15,6 C 67 % 1015,3 hPa 0,0 l/m 0 min 0 min 0,0 UV-I 167 W/m 2,6 km/h (1 Bft)
05.04.2014 18:04 17,0 C 15,6 C 68 % 1015,3 hPa 0,0 l/m 0 min 0 min 0,0 UV-I 137 W/m 2,6 km/h (1 Bft)
05.04.2014 18:06 16,9 C 15,6 C 69 % 1015,2 hPa 0,0 l/m 2 min 0 min 0,0 UV-I 199 W/m 10,3 km/h (2 Bft)
05.04.2014 18:08 16,8 C 15,6 C 68 % 1015,3 hPa 0,0 l/m 0 min 0 min 0,0 UV-I 149 W/m 0,0 km/h (0 Bft)
05.04.2014 18:10 16,8 C 15,6 C 68 % 1015,3 hPa 0,0 l/m 2 min 0 min 0,0 UV-I 258 W/m 7,7 km/h (2 Bft)
05.04.2014 18:12 16,8 C 15,6 C 68 % 1015,2 hPa 0,0 l/m 2 min 0 min 0,0 UV-I 258 W/m 7,7 km/h (2 Bft)
05.04.2014 18:14 16,8 C 15,6 C 69 % 1015,3 hPa 0,0 l/m 2 min 0 min 0,0 UV-I 220 W/m 2,6 km/h (1 Bft)
05.04.2014 18:16 16,8 C 15,6 C 68 % 1015,3 hPa 0,0 l/m 0 min 0 min 0,0 UV-I 134 W/m 0,0 km/h (0 Bft)
05.04.2014 18:18 16,8 C 15,6 C 68 % 1015,3 hPa 0,0 l/m 0 min 0 min 0,0 UV-I 113 W/m 0,0 km/h (0 Bft)
05.04.2014 18:20 16,6 C 15,0 C 68 % 1015,3 hPa 0,0 l/m 0 min 0 min 0,0 UV-I 142 W/m 0,0 km/h (0 Bft)
05.04.2014 18:22 16,5 C 15,0 C 68 % 1015,4 hPa 0,0 l/m 0 min 0 min 0,0 UV-I 84 W/m 2,6 km/h (1 Bft)
05.04.2014 18:24 16,4 C 15,0 C 70 % 1015,4 hPa 0,0 l/m 0 min 0 min 0,0 UV-I 83 W/m 7,7 km/h (2 Bft)
05.04.2014 18:26 16,3 C 15,0 C 69 % 1015,4 hPa 0,0 l/m 0 min 0 min 0,0 UV-I 95 W/m 7,7 km/h (2 Bft)
05.04.2014 18:28 16,3 C 15,0 C 68 % 1015,4 hPa 0,0 l/m 0 min 0 min 0,0 UV-I 93 W/m 7,7 km/h (2 Bft)
05.04.2014 18:30 16,3 C 15,0 C 67 % 1015,4 hPa 0,0 l/m 0 min 0 min 0,0 UV-I 107 W/m 2,6 km/h (1 Bft)
05.04.2014 18:32 16,4 C 15,0 C 66 % 1015,4 hPa 0,0 l/m 0 min 0 min 0,0 UV-I 107 W/m 0,0 km/h (0 Bft)
05.04.2014 18:34 16,4 C 15,0 C 66 % 1015,5 hPa 0,0 l/m 2 min 0 min 0,0 UV-I 153 W/m 5,1 km/h (1 Bft)
05.04.2014 18:36 16,5 C 15,0 C 66 % 1015,5 hPa 0,0 l/m 0 min 0 min 0,0 UV-I 98 W/m 0,0 km/h (0 Bft)
05.04.2014 18:38 16,5 C 15,0 C 67 % 1015,5 hPa 0,0 l/m 0 min 0 min 0,0 UV-I 125 W/m 0,0 km/h (0 Bft)
05.04.2014 18:40 16,5 C 15,0 C 67 % 1015,5 hPa 0,0 l/m 0 min 0 min 0,0 UV-I 127 W/m 0,0 km/h (0 Bft)
05.04.2014 18:42 16,6 C 15,0 C 68 % 1015,5 hPa 0,0 l/m 0 min 0 min 0,0 UV-I 104 W/m 0,0 km/h (0 Bft)
05.04.2014 18:44 16,6 C 15,0 C 67 % 1015,5 hPa 0,0 l/m 0 min 0 min 0,0 UV-I 100 W/m 0,0 km/h (0 Bft)
05.04.2014 18:46 16,6 C 15,0 C 66 % 1015,5 hPa 0,0 l/m 0 min 0 min 0,0 UV-I 104 W/m 0,0 km/h (0 Bft)
05.04.2014 18:48 16,6 C 15,0 C 67 % 1015,5 hPa 0,0 l/m 0 min 0 min 0,0 UV-I 105 W/m 0,0 km/h (0 Bft)
05.04.2014 18:50 16,5 C 15,0 C 67 % 1015,5 hPa 0,0 l/m 0 min 0 min 0,0 UV-I 93 W/m 0,0 km/h (0 Bft)
05.04.2014 18:52 16,5 C 15,0 C 68 % 1015,5 hPa 0,0 l/m 0 min 0 min 0,0 UV-I 81 W/m 2,6 km/h (1 Bft)
05.04.2014 18:54 16,4 C 15,0 C 67 % 1015,5 hPa 0,0 l/m 0 min 0 min 0,0 UV-I 74 W/m 0,0 km/h (0 Bft)
05.04.2014 18:56 16,4 C 15,0 C 67 % 1015,6 hPa 0,0 l/m 0 min 0 min 0,0 UV-I 84 W/m 2,6 km/h (1 Bft)
05.04.2014 18:58 16,3 C 14,4 C 67 % 1015,6 hPa 0,0 l/m 0 min 0 min 0,0 UV-I 65 W/m 7,7 km/h (2 Bft)
05.04.2014 19:00 16,2 C 14,4 C 68 % 1015,6 hPa 0,0 l/m 0 min 0 min 0,0 UV-I 62 W/m 5,1 km/h (1 Bft)
05.04.2014 19:02 16,2 C 14,4 C 69 % 1015,6 hPa 0,0 l/m 0 min 0 min 0,0 UV-I 62 W/m 2,6 km/h (1 Bft)
05.04.2014 19:04 16,2 C 14,4 C 68 % 1015,6 hPa 0,0 l/m 0 min 0 min 0,0 UV-I 51 W/m 0,0 km/h (0 Bft)
05.04.2014 19:06 16,1 C 14,4 C 68 % 1015,6 hPa 0,0 l/m 0 min 0 min 0,0 UV-I 53 W/m 2,6 km/h (1 Bft)
05.04.2014 19:08 16,1 C 13,9 C 69 % 1015,6 hPa 0,0 l/m 0 min 0 min 0,0 UV-I 47 W/m 0,0 km/h (0 Bft)
05.04.2014 19:10 16,0 C 13,9 C 68 % 1015,6 hPa 0,0 l/m 0 min 0 min 0,0 UV-I 47 W/m 12,9 km/h (3 Bft)
05.04.2014 19:12 15,9 C 13,9 C 69 % 1015,7 hPa 0,0 l/m 0 min 0 min 0,0 UV-I 46 W/m 7,7 km/h (2 Bft)
05.04.2014 19:14 15,9 C 13,9 C 69 % 1015,6 hPa 0,0 l/m 0 min 0 min 0,0 UV-I 42 W/m 2,6 km/h (1 Bft)
05.04.2014 19:16 15,9 C 13,9 C 69 % 1015,7 hPa 0,0 l/m 0 min 0 min 0,0 UV-I 40 W/m 5,1 km/h (1 Bft)
05.04.2014 19:18 15,8 C 13,9 C 69 % 1015,7 hPa 0,0 l/m 0 min 0 min 0,0 UV-I 40 W/m 2,6 km/h (1 Bft)
05.04.2014 19:20 15,7 C 13,9 C 70 % 1015,7 hPa 0,0 l/m 0 min 0 min 0,0 UV-I 40 W/m 0,0 km/h (0 Bft)
05.04.2014 19:22 15,6 C 13,3 C 70 % 1015,6 hPa 0,0 l/m 0 min 0 min 0,0 UV-I 40 W/m 0,0 km/h (0 Bft)
05.04.2014 19:24 15,6 C 13,3 C 70 % 1015,7 hPa 0,0 l/m 0 min 0 min 0,0 UV-I 39 W/m 0,0 km/h (0 Bft)
05.04.2014 19:26 15,5 C 13,3 C 70 % 1015,6 hPa 0,0 l/m 0 min 0 min 0,0 UV-I 37 W/m 0,0 km/h (0 Bft)
05.04.2014 19:28 15,5 C 13,3 C 70 % 1015,6 hPa 0,0 l/m 0 min 0 min 0,0 UV-I 33 W/m 0,0 km/h (0 Bft)
05.04.2014 19:30 15,4 C 13,3 C 71 % 1015,6 hPa 0,0 l/m 0 min 0 min 0,0 UV-I 32 W/m 0,0 km/h (0 Bft)
05.04.2014 19:32 15,3 C 13,3 C 71 % 1015,6 hPa 0,0 l/m 0 min 0 min 0,0 UV-I 30 W/m 0,0 km/h (0 Bft)
05.04.2014 19:34 15,3 C 12,8 C 70 % 1015,6 hPa 0,0 l/m 0 min 0 min 0,0 UV-I 28 W/m 0,0 km/h (0 Bft)
05.04.2014 19:36 15,3 C 12,8 C 71 % 1015,7 hPa 0,0 l/m 0 min 0 min 0,0 UV-I 28 W/m 0,0 km/h (0 Bft)
05.04.2014 19:38 15,2 C 12,8 C 71 % 1015,7 hPa 0,0 l/m 0 min 0 min 0,0 UV-I 26 W/m 0,0 km/h (0 Bft)
05.04.2014 19:40 15,2 C 12,8 C 71 % 1015,6 hPa 0,0 l/m 0 min 0 min 0,0 UV-I 25 W/m 0,0 km/h (0 Bft)
05.04.2014 19:42 15,1 C 12,8 C 72 % 1015,6 hPa 0,0 l/m 0 min 0 min 0,0 UV-I 21 W/m 0,0 km/h (0 Bft)
05.04.2014 19:44 15,0 C 12,8 C 72 % 1015,6 hPa 0,0 l/m 0 min 0 min 0,0 UV-I 18 W/m 0,0 km/h (0 Bft)
05.04.2014 19:46 15,0 C 12,8 C 71 % 1015,6 hPa 0,0 l/m 0 min 0 min 0,0 UV-I 16 W/m 0,0 km/h (0 Bft)
05.04.2014 19:48 14,9 C 12,2 C 72 % 1015,6 hPa 0,0 l/m 0 min 0 min 0,0 UV-I 16 W/m 0,0 km/h (0 Bft)
05.04.2014 19:50 14,8 C 12,2 C 72 % 1015,7 hPa 0,0 l/m 0 min 0 min 0,0 UV-I 16 W/m 0,0 km/h (0 Bft)
05.04.2014 19:52 14,7 C 12,2 C 72 % 1015,7 hPa 0,0 l/m 0 min 0 min 0,0 UV-I 12 W/m 0,0 km/h (0 Bft)
05.04.2014 19:54 14,7 C 12,2 C 73 % 1015,6 hPa 0,0 l/m 0 min 0 min 0,0 UV-I 12 W/m 0,0 km/h (0 Bft)
05.04.2014 19:56 14,7 C 12,2 C 73 % 1015,7 hPa 0,0 l/m 0 min 0 min 0,0 UV-I 12 W/m 0,0 km/h (0 Bft)
05.04.2014 19:58 14,6 C 12,2 C 73 % 1015,7 hPa 0,0 l/m 0 min 0 min 0,0 UV-I 12 W/m 0,0 km/h (0 Bft)
05.04.2014 20:00 14,6 C 11,7 C 73 % 1015,7 hPa 0,0 l/m 0 min 0 min 0,0 UV-I 11 W/m 0,0 km/h (0 Bft)
05.04.2014 20:02 14,4 C 11,7 C 73 % 1015,7 hPa 0,0 l/m 0 min 0 min 0,0 UV-I 9 W/m 0,0 km/h (0 Bft)
05.04.2014 20:04 14,3 C 11,7 C 74 % 1015,7 hPa 0,0 l/m 0 min 0 min 0,0 UV-I 7 W/m 0,0 km/h (0 Bft)
05.04.2014 20:06 14,3 C 11,7 C 74 % 1015,7 hPa 0,0 l/m 0 min 0 min 0,0 UV-I 7 W/m 0,0 km/h (0 Bft)
05.04.2014 20:08 14,2 C 11,1 C 74 % 1015,7 hPa 0,0 l/m 0 min 0 min 0,0 UV-I 7 W/m 0,0 km/h (0 Bft)
05.04.2014 20:10 14,2 C 11,1 C 75 % 1015,7 hPa 0,0 l/m 0 min 0 min 0,0 UV-I 5 W/m 0,0 km/h (0 Bft)
05.04.2014 20:12 14,2 C 11,1 C 75 % 1015,7 hPa 0,0 l/m 0 min 0 min 0,0 UV-I 5 W/m 0,0 km/h (0 Bft)
05.04.2014 20:14 14,1 C 11,1 C 75 % 1015,7 hPa 0,0 l/m 0 min 0 min 0,0 UV-I 0 W/m 0,0 km/h (0 Bft)
05.04.2014 20:16 13,9 C 11,1 C 76 % 1015,8 hPa 0,0 l/m 0 min 0 min 0,0 UV-I 0 W/m 0,0 km/h (0 Bft)
05.04.2014 20:18 13,8 C 11,1 C 76 % 1015,8 hPa 0,0 l/m 0 min 0 min 0,0 UV-I 0 W/m 0,0 km/h (0 Bft)
05.04.2014 20:20 13,7 C 11,1 C 77 % 1015,8 hPa 0,0 l/m 0 min 0 min 0,0 UV-I 0 W/m 0,0 km/h (0 Bft)
05.04.2014 20:22 13,6 C 10,6 C 77 % 1015,8 hPa 0,0 l/m 0 min 0 min 0,0 UV-I 0 W/m 0,0 km/h (0 Bft)
05.04.2014 20:24 13,6 C 10,6 C 77 % 1015,8 hPa 0,0 l/m 0 min 0 min 0,0 UV-I 0 W/m 0,0 km/h (0 Bft)
05.04.2014 20:26 13,5 C 10,6 C 78 % 1015,9 hPa 0,0 l/m 0 min 0 min 0,0 UV-I 0 W/m 0,0 km/h (0 Bft)
05.04.2014 20:28 13,4 C 10,6 C 78 % 1015,9 hPa 0,0 l/m 0 min 0 min 0,0 UV-I 0 W/m 0,0 km/h (0 Bft)
05.04.2014 20:30 13,3 C 10,6 C 78 % 1015,9 hPa 0,0 l/m 0 min 0 min 0,0 UV-I 0 W/m 0,0 km/h (0 Bft)
05.04.2014 20:32 13,3 C 10,6 C 78 % 1015,9 hPa 0,0 l/m 0 min 0 min 0,0 UV-I 0 W/m 0,0 km/h (0 Bft)
05.04.2014 20:34 13,2 C 10,0 C 78 % 1016,0 hPa 0,0 l/m 0 min 0 min 0,0 UV-I 0 W/m 0,0 km/h (0 Bft)
05.04.2014 20:36 13,2 C 10,0 C 79 % 1016,0 hPa 0,0 l/m 0 min 0 min 0,0 UV-I 0 W/m 0,0 km/h (0 Bft)
05.04.2014 20:38 13,1 C 10,0 C 79 % 1016,0 hPa 0,0 l/m 0 min 0 min 0,0 UV-I 0 W/m 0,0 km/h (0 Bft)
05.04.2014 20:40 13,0 C 10,0 C 79 % 1016,0 hPa 0,0 l/m 0 min 0 min 0,0 UV-I 0 W/m 0,0 km/h (0 Bft)
05.04.2014 20:42 12,9 C 10,0 C 79 % 1016,0 hPa 0,0 l/m 0 min 0 min 0,0 UV-I 0 W/m 0,0 km/h (0 Bft)
05.04.2014 20:44 12,8 C 10,0 C 80 % 1016,1 hPa 0,0 l/m 0 min 0 min 0,0 UV-I 0 W/m 0,0 km/h (0 Bft)
05.04.2014 20:46 12,7 C 10,0 C 80 % 1016,1 hPa 0,0 l/m 0 min 0 min 0,0 UV-I 0 W/m 0,0 km/h (0 Bft)
05.04.2014 20:48 12,7 C 10,0 C 80 % 1016,2 hPa 0,0 l/m 0 min 0 min 0,0 UV-I 0 W/m 0,0 km/h (0 Bft)
05.04.2014 20:50 12,7 C 10,0 C 80 % 1016,2 hPa 0,0 l/m 0 min 0 min 0,0 UV-I 0 W/m 0,0 km/h (0 Bft)
05.04.2014 20:52 12,7 C 9,4 C 80 % 1016,2 hPa 0,0 l/m 0 min 0 min 0,0 UV-I 0 W/m 0,0 km/h (0 Bft)
05.04.2014 20:54 12,7 C 9,4 C 80 % 1016,2 hPa 0,0 l/m 0 min 0 min 0,0 UV-I 0 W/m 0,0 km/h (0 Bft)
05.04.2014 20:56 12,6 C 9,4 C 80 % 1016,3 hPa 0,0 l/m 0 min 0 min 0,0 UV-I 0 W/m 0,0 km/h (0 Bft)
05.04.2014 20:58 12,5 C 9,4 C 81 % 1016,3 hPa 0,0 l/m 0 min 0 min 0,0 UV-I 0 W/m 0,0 km/h (0 Bft)
05.04.2014 21:00 12,4 C 9,4 C 81 % 1016,2 hPa 0,0 l/m 0 min 0 min 0,0 UV-I 0 W/m 0,0 km/h (0 Bft)
05.04.2014 21:02 12,4 C 9,4 C 81 % 1016,3 hPa 0,0 l/m 0 min 0 min 0,0 UV-I 0 W/m 0,0 km/h (0 Bft)
05.04.2014 21:04 12,3 C 9,4 C 81 % 1016,3 hPa 0,0 l/m 0 min 0 min 0,0 UV-I 0 W/m 0,0 km/h (0 Bft)
05.04.2014 21:06 12,2 C 9,4 C 82 % 1016,3 hPa 0,0 l/m 0 min 0 min 0,0 UV-I 0 W/m 0,0 km/h (0 Bft)
05.04.2014 21:08 12,1 C 9,4 C 82 % 1016,3 hPa 0,0 l/m 0 min 0 min 0,0 UV-I 0 W/m 0,0 km/h (0 Bft)
05.04.2014 21:10 12,1 C 9,4 C 82 % 1016,3 hPa 0,0 l/m 0 min 0 min 0,0 UV-I 0 W/m 0,0 km/h (0 Bft)
05.04.2014 21:12 11,9 C 9,4 C 83 % 1016,3 hPa 0,0 l/m 0 min 0 min 0,0 UV-I 0 W/m 0,0 km/h (0 Bft)
05.04.2014 21:14 11,9 C 9,4 C 83 % 1016,4 hPa 0,0 l/m 0 min 0 min 0,0 UV-I 0 W/m 0,0 km/h (0 Bft)
05.04.2014 21:16 11,9 C 9,4 C 83 % 1016,4 hPa 0,0 l/m 0 min 0 min 0,0 UV-I 0 W/m 0,0 km/h (0 Bft)
05.04.2014 21:18 11,9 C 8,9 C 83 % 1016,4 hPa 0,0 l/m 0 min 0 min 0,0 UV-I 0 W/m 0,0 km/h (0 Bft)
05.04.2014 21:20 11,9 C 8,9 C 83 % 1016,4 hPa 0,0 l/m 0 min 0 min 0,0 UV-I 0 W/m 0,0 km/h (0 Bft)
05.04.2014 21:22 11,9 C 8,9 C 83 % 1016,4 hPa 0,0 l/m 0 min 0 min 0,0 UV-I 0 W/m 0,0 km/h (0 Bft)
05.04.2014 21:24 11,8 C 8,9 C 83 % 1016,4 hPa 0,0 l/m 0 min 0 min 0,0 UV-I 0 W/m 0,0 km/h (0 Bft)
05.04.2014 21:26 11,8 C 8,9 C 83 % 1016,4 hPa 0,0 l/m 0 min 0 min 0,0 UV-I 0 W/m 0,0 km/h (0 Bft)
05.04.2014 21:28 11,8 C 8,9 C 83 % 1016,4 hPa 0,0 l/m 0 min 0 min 0,0 UV-I 0 W/m 0,0 km/h (0 Bft)
05.04.2014 21:30 11,8 C 8,9 C 83 % 1016,5 hPa 0,0 l/m 0 min 0 min 0,0 UV-I 0 W/m 0,0 km/h (0 Bft)
05.04.2014 21:32 11,8 C 8,9 C 83 % 1016,5 hPa 0,0 l/m 0 min 0 min 0,0 UV-I 0 W/m 0,0 km/h (0 Bft)
05.04.2014 21:34 11,7 C 8,9 C 83 % 1016,5 hPa 0,0 l/m 0 min 0 min 0,0 UV-I 0 W/m 0,0 km/h (0 Bft)
05.04.2014 21:36 11,7 C 8,9 C 84 % 1016,5 hPa 0,0 l/m 0 min 0 min 0,0 UV-I 0 W/m 0,0 km/h (0 Bft)
05.04.2014 21:38 11,7 C 8,9 C 84 % 1016,5 hPa 0,0 l/m 0 min 0 min 0,0 UV-I 0 W/m 0,0 km/h (0 Bft)
05.04.2014 21:40 11,7 C 8,9 C 84 % 1016,5 hPa 0,0 l/m 0 min 0 min 0,0 UV-I 0 W/m 0,0 km/h (0 Bft)
05.04.2014 21:42 11,8 C 8,9 C 84 % 1016,5 hPa 0,0 l/m 0 min 0 min 0,0 UV-I 0 W/m 0,0 km/h (0 Bft)
05.04.2014 21:44 11,8 C 8,9 C 84 % 1016,5 hPa 0,0 l/m 0 min 0 min 0,0 UV-I 0 W/m 0,0 km/h (0 Bft)
05.04.2014 21:46 11,7 C 8,9 C 84 % 1016,5 hPa 0,0 l/m 0 min 0 min 0,0 UV-I 0 W/m 0,0 km/h (0 Bft)
05.04.2014 21:48 11,7 C 8,9 C 84 % 1016,5 hPa 0,0 l/m 0 min 0 min 0,0 UV-I 0 W/m 0,0 km/h (0 Bft)
05.04.2014 21:50 11,7 C 8,9 C 84 % 1016,6 hPa 0,0 l/m 0 min 0 min 0,0 UV-I 0 W/m 0,0 km/h (0 Bft)
05.04.2014 21:52 11,8 C 8,9 C 84 % 1016,5 hPa 0,0 l/m 0 min 0 min 0,0 UV-I 0 W/m 0,0 km/h (0 Bft)
05.04.2014 21:54 11,8 C 8,9 C 84 % 1016,6 hPa 0,0 l/m 0 min 0 min 0,0 UV-I 0 W/m 0,0 km/h (0 Bft)
05.04.2014 21:56 11,8 C 8,9 C 84 % 1016,6 hPa 0,0 l/m 0 min 0 min 0,0 UV-I 0 W/m 0,0 km/h (0 Bft)
05.04.2014 21:58 11,7 C 8,9 C 84 % 1016,6 hPa 0,0 l/m 0 min 0 min 0,0 UV-I 0 W/m 0,0 km/h (0 Bft)
05.04.2014 22:00 11,7 C 8,9 C 84 % 1016,6 hPa 0,0 l/m 0 min 0 min 0,0 UV-I 0 W/m 0,0 km/h (0 Bft)
05.04.2014 22:02 11,6 C 8,9 C 84 % 1016,6 hPa 0,0 l/m 0 min 0 min 0,0 UV-I 0 W/m 0,0 km/h (0 Bft)
05.04.2014 22:04 11,6 C 8,9 C 84 % 1016,6 hPa 0,0 l/m 0 min 0 min 0,0 UV-I 0 W/m 0,0 km/h (0 Bft)
05.04.2014 22:06 11,5 C 8,9 C 84 % 1016,6 hPa 0,0 l/m 0 min 0 min 0,0 UV-I 0 W/m 0,0 km/h (0 Bft)
05.04.2014 22:08 11,4 C 8,9 C 84 % 1016,6 hPa 0,0 l/m 0 min 0 min 0,0 UV-I 0 W/m 0,0 km/h (0 Bft)
05.04.2014 22:10 11,3 C 8,9 C 85 % 1016,6 hPa 0,0 l/m 0 min 0 min 0,0 UV-I 0 W/m 0,0 km/h (0 Bft)
05.04.2014 22:12 11,3 C 8,9 C 85 % 1016,6 hPa 0,0 l/m 0 min 0 min 0,0 UV-I 0 W/m 0,0 km/h (0 Bft)
05.04.2014 22:14 11,3 C 8,3 C 85 % 1016,6 hPa 0,0 l/m 0 min 0 min 0,0 UV-I 0 W/m 0,0 km/h (0 Bft)
05.04.2014 22:16 11,2 C 8,3 C 85 % 1016,6 hPa 0,0 l/m 0 min 0 min 0,0 UV-I 0 W/m 0,0 km/h (0 Bft)
05.04.2014 22:18 11,2 C 8,3 C 85 % 1016,6 hPa 0,0 l/m 0 min 0 min 0,0 UV-I 0 W/m 0,0 km/h (0 Bft)
05.04.2014 22:20 11,1 C 8,3 C 85 % 1016,7 hPa 0,0 l/m 0 min 0 min 0,0 UV-I 0 W/m 0,0 km/h (0 Bft)
05.04.2014 22:22 11,0 C 8,3 C 85 % 1016,6 hPa 0,0 l/m 0 min 0 min 0,0 UV-I 0 W/m 0,0 km/h (0 Bft)
05.04.2014 22:24 10,9 C 8,3 C 86 % 1016,7 hPa 0,0 l/m 0 min 0 min 0,0 UV-I 0 W/m 0,0 km/h (0 Bft)
05.04.2014 22:26 10,9 C 8,3 C 86 % 1016,6 hPa 0,0 l/m 0 min 0 min 0,0 UV-I 0 W/m 0,0 km/h (0 Bft)
05.04.2014 22:28 10,9 C 8,3 C 86 % 1016,6 hPa 0,0 l/m 0 min 0 min 0,0 UV-I 0 W/m 0,0 km/h (0 Bft)
05.04.2014 22:30 10,9 C 8,3 C 86 % 1016,6 hPa 0,0 l/m 0 min 0 min 0,0 UV-I 0 W/m 0,0 km/h (0 Bft)
05.04.2014 22:32 10,9 C 8,3 C 86 % 1016,6 hPa 0,0 l/m 0 min 0 min 0,0 UV-I 0 W/m 0,0 km/h (0 Bft)
05.04.2014 22:34 10,9 C 8,3 C 86 % 1016,7 hPa 0,0 l/m 0 min 0 min 0,0 UV-I 0 W/m 0,0 km/h (0 Bft)
05.04.2014 22:36 10,9 C 8,3 C 86 % 1016,6 hPa 0,0 l/m 0 min 0 min 0,0 UV-I 0 W/m 0,0 km/h (0 Bft)
05.04.2014 22:38 10,9 C 8,3 C 86 % 1016,7 hPa 0,0 l/m 0 min 0 min 0,0 UV-I 0 W/m 0,0 km/h (0 Bft)
05.04.2014 22:40 10,9 C 8,3 C 86 % 1016,7 hPa 0,0 l/m 0 min 0 min 0,0 UV-I 0 W/m 0,0 km/h (0 Bft)
05.04.2014 22:42 10,8 C 8,3 C 86 % 1016,6 hPa 0,0 l/m 0 min 0 min 0,0 UV-I 0 W/m 0,0 km/h (0 Bft)
05.04.2014 22:44 10,8 C 8,3 C 87 % 1016,7 hPa 0,0 l/m 0 min 0 min 0,0 UV-I 0 W/m 0,0 km/h (0 Bft)
05.04.2014 22:46 10,8 C 8,3 C 87 % 1016,6 hPa 0,0 l/m 0 min 0 min 0,0 UV-I 0 W/m 0,0 km/h (0 Bft)
05.04.2014 22:48 10,9 C 8,3 C 87 % 1016,6 hPa 0,0 l/m 0 min 0 min 0,0 UV-I 0 W/m 0,0 km/h (0 Bft)
05.04.2014 22:50 10,9 C 8,3 C 87 % 1016,7 hPa 0,0 l/m 0 min 0 min 0,0 UV-I 0 W/m 0,0 km/h (0 Bft)
05.04.2014 22:52 10,9 C 8,3 C 86 % 1016,7 hPa 0,0 l/m 0 min 0 min 0,0 UV-I 0 W/m 0,0 km/h (0 Bft)
05.04.2014 22:54 10,8 C 8,3 C 87 % 1016,7 hPa 0,0 l/m 0 min 0 min 0,0 UV-I 0 W/m 0,0 km/h (0 Bft)
05.04.2014 22:56 10,8 C 8,3 C 87 % 1016,7 hPa 0,0 l/m 0 min 0 min 0,0 UV-I 0 W/m 0,0 km/h (0 Bft)
05.04.2014 22:58 10,8 C 8,3 C 87 % 1016,7 hPa 0,0 l/m 0 min 0 min 0,0 UV-I 0 W/m 0,0 km/h (0 Bft)
05.04.2014 23:00 10,8 C 8,3 C 87 % 1016,7 hPa 0,0 l/m 0 min 0 min 0,0 UV-I 0 W/m 0,0 km/h (0 Bft)
05.04.2014 23:02 10,8 C 8,3 C 87 % 1016,7 hPa 0,0 l/m 0 min 0 min 0,0 UV-I 0 W/m 0,0 km/h (0 Bft)
05.04.2014 23:04 10,8 C 8,3 C 87 % 1016,7 hPa 0,0 l/m 0 min 0 min 0,0 UV-I 0 W/m 0,0 km/h (0 Bft)
05.04.2014 23:06 10,7 C 8,3 C 87 % 1016,7 hPa 0,0 l/m 0 min 0 min 0,0 UV-I 0 W/m 0,0 km/h (0 Bft)
05.04.2014 23:08 10,7 C 8,3 C 87 % 1016,7 hPa 0,0 l/m 0 min 0 min 0,0 UV-I 0 W/m 0,0 km/h (0 Bft)
05.04.2014 23:10 10,7 C 8,3 C 87 % 1016,7 hPa 0,0 l/m 0 min 0 min 0,0 UV-I 0 W/m 0,0 km/h (0 Bft)
05.04.2014 23:12 10,7 C 8,3 C 87 % 1016,7 hPa 0,0 l/m 0 min 0 min 0,0 UV-I 0 W/m 0,0 km/h (0 Bft)
05.04.2014 23:14 10,7 C 8,3 C 87 % 1016,6 hPa 0,0 l/m 0 min 0 min 0,0 UV-I 0 W/m 0,0 km/h (0 Bft)
05.04.2014 23:16 10,6 C 8,3 C 87 % 1016,6 hPa 0,0 l/m 0 min 0 min 0,0 UV-I 0 W/m 0,0 km/h (0 Bft)
05.04.2014 23:18 10,5 C 8,3 C 87 % 1016,6 hPa 0,0 l/m 0 min 0 min 0,0 UV-I 0 W/m 0,0 km/h (0 Bft)
05.04.2014 23:20 10,5 C 8,3 C 87 % 1016,6 hPa 0,0 l/m 0 min 0 min 0,0 UV-I 0 W/m 0,0 km/h (0 Bft)
05.04.2014 23:22 10,5 C 8,3 C 87 % 1016,6 hPa 0,0 l/m 0 min 0 min 0,0 UV-I 0 W/m 0,0 km/h (0 Bft)
05.04.2014 23:24 10,5 C 7,8 C 87 % 1016,6 hPa 0,0 l/m 0 min 0 min 0,0 UV-I 0 W/m 0,0 km/h (0 Bft)
05.04.2014 23:26 10,4 C 7,8 C 87 % 1016,7 hPa 0,0 l/m 0 min 0 min 0,0 UV-I 0 W/m 0,0 km/h (0 Bft)
05.04.2014 23:28 10,4 C 7,8 C 87 % 1016,6 hPa 0,0 l/m 0 min 0 min 0,0 UV-I 0 W/m 0,0 km/h (0 Bft)
05.04.2014 23:30 10,3 C 7,8 C 88 % 1016,7 hPa 0,0 l/m 0 min 0 min 0,0 UV-I 0 W/m 0,0 km/h (0 Bft)
05.04.2014 23:32 10,2 C 7,8 C 88 % 1016,7 hPa 0,0 l/m 0 min 0 min 0,0 UV-I 0 W/m 0,0 km/h (0 Bft)
05.04.2014 23:34 10,2 C 7,8 C 88 % 1016,7 hPa 0,0 l/m 0 min 0 min 0,0 UV-I 0 W/m 0,0 km/h (0 Bft)
05.04.2014 23:36 10,2 C 7,8 C 88 % 1016,7 hPa 0,0 l/m 0 min 0 min 0,0 UV-I 0 W/m 0,0 km/h (0 Bft)
05.04.2014 23:38 10,1 C 7,8 C 88 % 1016,7 hPa 0,0 l/m 0 min 0 min 0,0 UV-I 0 W/m 0,0 km/h (0 Bft)
05.04.2014 23:40 10,1 C 7,8 C 88 % 1016,8 hPa 0,0 l/m 0 min 0 min 0,0 UV-I 0 W/m 0,0 km/h (0 Bft)
05.04.2014 23:42 10,1 C 7,8 C 88 % 1016,8 hPa 0,0 l/m 0 min 0 min 0,0 UV-I 0 W/m 0,0 km/h (0 Bft)
05.04.2014 23:44 10,1 C 7,8 C 89 % 1016,9 hPa 0,0 l/m 0 min 0 min 0,0 UV-I 0 W/m 0,0 km/h (0 Bft)
05.04.2014 23:46 10,0 C 7,8 C 89 % 1016,9 hPa 0,0 l/m 0 min 0 min 0,0 UV-I 0 W/m 0,0 km/h (0 Bft)
05.04.2014 23:48 9,9 C 7,8 C 89 % 1016,9 hPa 0,0 l/m 0 min 0 min 0,0 UV-I 0 W/m 0,0 km/h (0 Bft)
05.04.2014 23:50 9,9 C 7,8 C 89 % 1016,9 hPa 0,0 l/m 0 min 0 min 0,0 UV-I 0 W/m 0,0 km/h (0 Bft)
05.04.2014 23:52 9,9 C 7,8 C 89 % 1016,9 hPa 0,0 l/m 0 min 0 min 0,0 UV-I 0 W/m 0,0 km/h (0 Bft)
05.04.2014 23:54 9,8 C 7,8 C 89 % 1017,0 hPa 0,0 l/m 0 min 0 min 0,0 UV-I 0 W/m 0,0 km/h (0 Bft)
05.04.2014 23:56 9,8 C 7,8 C 89 % 1017,0 hPa 0,0 l/m 0 min 0 min 0,0 UV-I 0 W/m 0,0 km/h (0 Bft)
05.04.2014 23:58 9,7 C 7,2 C 89 % 1017,0 hPa 0,0 l/m 0 min 0 min 0,0 UV-I 0 W/m 0,0 km/h (0 Bft)
_ Min-Zeit 23:58 23:58 17:44 00:00 - - - - - 00:10
Minimum _ 9,7 C 7,2 C 66 % 1011,1 hPa - - - - - 0,0 km/h (0 Bft)
_ Max-Zeit 17:42 16:12 03:54 23:54 00:00 10:48 00:00 16:12 16:14 12:42
Maximum _ 17,3 C 17,2 C 95 % 1017,0 hPa 0,0 l/m 2 min 0 min 1,3 UV-I 563 W/m 15,4 km/h
N-NW (3 Bft)
Durchschnitt _ 12,9 C 11,9 C 84 % 1014,3 hPa #0,0 l/m #1:24 h #0 min. 0,7 UV-I 180 W/m 1,6 km/h (1 Bft)
© 2014 W. Hausmann